<?xml version="1.0" encoding="UTF-8" standalone="no" ?>
<gpx xmlns="http://www.topografix.com/GPX/1/1" xmlns:xsi="http://www.w3.org/2001/XMLSchema-instance" xsi:schemaLocation="http://www.topografix.com/GPX/1/1 http://www.topografix.com/GPX/1/1/gpx.xsd" version="1.1" creator="VisuGPX - https://www.visugpx.com">
  <metadata>
    <name>Brégançon</name>
    <desc><![CDATA[Agréable randonnée en automne. Un barrage, des vignes et le bord de mer jusqu'au fort de Brégançon. 
Une bonne montée jusqu'à la stèle en mémoire des combattants du feu de l'incendie de Cabasson de 1990. ]]></desc>
  </metadata>
  <trk>
    <name><![CDATA[Brégançon 13,5km 300m]]></name>
    <extensions>
      <line xmlns="http://www.topografix.com/GPX/gpx_style/0/2">
        <color>0000FF</color>
        <width>4</width>
      </line>
    </extensions>
    <trkseg>
      <trkpt lat="43.12152" lon="6.32654">
        <ele>74.9</ele>
        <time>2022-10-02T08:00:00.000Z</time>
      </trkpt>
      <trkpt lat="43.12143" lon="6.32649">
        <ele>73.6</ele>
        <time>2022-10-02T08:00:02.760Z</time>
      </trkpt>
      <trkpt lat="43.12139" lon="6.32643">
        <ele>71.7</ele>
        <time>2022-10-02T08:00:04.445Z</time>
      </trkpt>
      <trkpt lat="43.12133" lon="6.32632">
        <ele>71.5</ele>
        <time>2022-10-02T08:00:08.484Z</time>
      </trkpt>
      <trkpt lat="43.12131" lon="6.32629">
        <ele>71.4</ele>
        <time>2022-10-02T08:00:09.513Z</time>
      </trkpt>
      <trkpt lat="43.1213" lon="6.32617">
        <ele>70.7</ele>
        <time>2022-10-02T08:00:12.018Z</time>
      </trkpt>
      <trkpt lat="43.12125" lon="6.32602">
        <ele>68.9</ele>
        <time>2022-10-02T08:00:15.438Z</time>
      </trkpt>
      <trkpt lat="43.12119" lon="6.32591">
        <ele>66.4</ele>
        <time>2022-10-02T08:00:18.286Z</time>
      </trkpt>
      <trkpt lat="43.12111" lon="6.3258">
        <ele>63.3</ele>
        <time>2022-10-02T08:00:21.507Z</time>
      </trkpt>
      <trkpt lat="43.12105" lon="6.32569">
        <ele>64.1</ele>
        <time>2022-10-02T08:00:56.420Z</time>
      </trkpt>
      <trkpt lat="43.12099" lon="6.32558">
        <ele>63.5</ele>
        <time>2022-10-02T08:00:59.171Z</time>
      </trkpt>
      <trkpt lat="43.12095" lon="6.32543">
        <ele>62.6</ele>
        <time>2022-10-02T08:01:02.483Z</time>
      </trkpt>
      <trkpt lat="43.1209" lon="6.32531">
        <ele>60.8</ele>
        <time>2022-10-02T08:01:05.349Z</time>
      </trkpt>
      <trkpt lat="43.12085" lon="6.3252">
        <ele>58.9</ele>
        <time>2022-10-02T08:01:08.037Z</time>
      </trkpt>
      <trkpt lat="43.12078" lon="6.3251">
        <ele>58.2</ele>
        <time>2022-10-02T08:01:10.910Z</time>
      </trkpt>
      <trkpt lat="43.1207" lon="6.325">
        <ele>57.2</ele>
        <time>2022-10-02T08:01:13.988Z</time>
      </trkpt>
      <trkpt lat="43.12065" lon="6.32489">
        <ele>56.4</ele>
        <time>2022-10-02T08:01:16.675Z</time>
      </trkpt>
      <trkpt lat="43.12061" lon="6.32476">
        <ele>54.9</ele>
        <time>2022-10-02T08:01:19.601Z</time>
      </trkpt>
      <trkpt lat="43.12058" lon="6.32464">
        <ele>54.2</ele>
        <time>2022-10-02T08:01:22.232Z</time>
      </trkpt>
      <trkpt lat="43.12054" lon="6.32451">
        <ele>54.4</ele>
        <time>2022-10-02T08:01:42.310Z</time>
      </trkpt>
      <trkpt lat="43.12054" lon="6.32439">
        <ele>54.9</ele>
        <time>2022-10-02T08:02:08.055Z</time>
      </trkpt>
      <trkpt lat="43.12054" lon="6.32424">
        <ele>55.4</ele>
        <time>2022-10-02T08:02:37.895Z</time>
      </trkpt>
      <trkpt lat="43.12053" lon="6.32412">
        <ele>56.3</ele>
        <time>2022-10-02T08:03:15.407Z</time>
      </trkpt>
      <trkpt lat="43.12049" lon="6.32402">
        <ele>57.2</ele>
        <time>2022-10-02T08:03:53.087Z</time>
      </trkpt>
      <trkpt lat="43.12043" lon="6.32391">
        <ele>58</ele>
        <time>2022-10-02T08:04:28.001Z</time>
      </trkpt>
      <trkpt lat="43.12037" lon="6.32379">
        <ele>59.1</ele>
        <time>2022-10-02T08:05:13.870Z</time>
      </trkpt>
      <trkpt lat="43.12034" lon="6.32367">
        <ele>60.7</ele>
        <time>2022-10-02T08:06:11.113Z</time>
      </trkpt>
      <trkpt lat="43.12029" lon="6.32355">
        <ele>61.4</ele>
        <time>2022-10-02T08:06:43.499Z</time>
      </trkpt>
      <trkpt lat="43.12025" lon="6.32344">
        <ele>61.7</ele>
        <time>2022-10-02T08:07:04.228Z</time>
      </trkpt>
      <trkpt lat="43.12024" lon="6.32333">
        <ele>62.6</ele>
        <time>2022-10-02T08:07:42.101Z</time>
      </trkpt>
      <trkpt lat="43.12022" lon="6.32318">
        <ele>63.4</ele>
        <time>2022-10-02T08:08:18.516Z</time>
      </trkpt>
      <trkpt lat="43.12017" lon="6.32306">
        <ele>64</ele>
        <time>2022-10-02T08:08:48.659Z</time>
      </trkpt>
      <trkpt lat="43.12009" lon="6.32296">
        <ele>64.5</ele>
        <time>2022-10-02T08:09:18.269Z</time>
      </trkpt>
      <trkpt lat="43.12002" lon="6.32289">
        <ele>64.5</ele>
        <time>2022-10-02T08:09:32.160Z</time>
      </trkpt>
      <trkpt lat="43.11997" lon="6.32277">
        <ele>65.1</ele>
        <time>2022-10-02T08:10:02.303Z</time>
      </trkpt>
      <trkpt lat="43.11993" lon="6.32265">
        <ele>65.7</ele>
        <time>2022-10-02T08:10:31.660Z</time>
      </trkpt>
      <trkpt lat="43.11988" lon="6.32252">
        <ele>66.2</ele>
        <time>2022-10-02T08:11:01.070Z</time>
      </trkpt>
      <trkpt lat="43.11984" lon="6.32241">
        <ele>65.9</ele>
        <time>2022-10-02T08:11:04.191Z</time>
      </trkpt>
      <trkpt lat="43.11982" lon="6.3223">
        <ele>66.4</ele>
        <time>2022-10-02T08:11:29.084Z</time>
      </trkpt>
      <trkpt lat="43.11982" lon="6.32217">
        <ele>66.3</ele>
        <time>2022-10-02T08:11:33.383Z</time>
      </trkpt>
      <trkpt lat="43.11984" lon="6.32205">
        <ele>64.6</ele>
        <time>2022-10-02T08:11:35.936Z</time>
      </trkpt>
      <trkpt lat="43.11984" lon="6.3219">
        <ele>62.6</ele>
        <time>2022-10-02T08:11:39.047Z</time>
      </trkpt>
      <trkpt lat="43.11984" lon="6.32177">
        <ele>61.2</ele>
        <time>2022-10-02T08:11:41.743Z</time>
      </trkpt>
      <trkpt lat="43.11987" lon="6.32164">
        <ele>60.5</ele>
        <time>2022-10-02T08:11:44.571Z</time>
      </trkpt>
      <trkpt lat="43.11987" lon="6.32151">
        <ele>59.1</ele>
        <time>2022-10-02T08:11:47.267Z</time>
      </trkpt>
      <trkpt lat="43.11986" lon="6.32137">
        <ele>57.4</ele>
        <time>2022-10-02T08:11:50.185Z</time>
      </trkpt>
      <trkpt lat="43.11983" lon="6.32124">
        <ele>55.8</ele>
        <time>2022-10-02T08:11:53.012Z</time>
      </trkpt>
      <trkpt lat="43.11977" lon="6.32111">
        <ele>53.3</ele>
        <time>2022-10-02T08:11:56.202Z</time>
      </trkpt>
      <trkpt lat="43.1197" lon="6.32096">
        <ele>50.3</ele>
        <time>2022-10-02T08:11:59.895Z</time>
      </trkpt>
      <trkpt lat="43.11966" lon="6.32085">
        <ele>48.7</ele>
        <time>2022-10-02T08:12:02.444Z</time>
      </trkpt>
      <trkpt lat="43.11963" lon="6.32073">
        <ele>47.5</ele>
        <time>2022-10-02T08:12:05.075Z</time>
      </trkpt>
      <trkpt lat="43.1196" lon="6.32061">
        <ele>46.4</ele>
        <time>2022-10-02T08:12:07.705Z</time>
      </trkpt>
      <trkpt lat="43.11959" lon="6.32048">
        <ele>45.6</ele>
        <time>2022-10-02T08:12:10.417Z</time>
      </trkpt>
      <trkpt lat="43.11958" lon="6.32035">
        <ele>44.9</ele>
        <time>2022-10-02T08:12:13.128Z</time>
      </trkpt>
      <trkpt lat="43.11963" lon="6.32022">
        <ele>44.3</ele>
        <time>2022-10-02T08:12:16.167Z</time>
      </trkpt>
      <trkpt lat="43.1197" lon="6.32014">
        <ele>43.7</ele>
        <time>2022-10-02T08:12:18.555Z</time>
      </trkpt>
      <trkpt lat="43.11979" lon="6.32015">
        <ele>43.9</ele>
        <time>2022-10-02T08:12:36.713Z</time>
      </trkpt>
      <trkpt lat="43.11988" lon="6.32015">
        <ele>44.5</ele>
        <time>2022-10-02T08:13:05.031Z</time>
      </trkpt>
      <trkpt lat="43.11998" lon="6.32008">
        <ele>44.1</ele>
        <time>2022-10-02T08:13:08.853Z</time>
      </trkpt>
      <trkpt lat="43.12" lon="6.32008">
        <ele>44.2</ele>
        <time>2022-10-02T08:13:14.459Z</time>
      </trkpt>
      <trkpt lat="43.12001" lon="6.31996">
        <ele>42.9</ele>
        <time>2022-10-02T08:13:16.964Z</time>
      </trkpt>
      <trkpt lat="43.12009" lon="6.31984">
        <ele>42.9</ele>
        <time>2022-10-02T08:13:35.979Z</time>
      </trkpt>
      <trkpt lat="43.12019" lon="6.31979">
        <ele>43.1</ele>
        <time>2022-10-02T08:13:56.589Z</time>
      </trkpt>
      <trkpt lat="43.12029" lon="6.3198">
        <ele>43.6</ele>
        <time>2022-10-02T08:14:24.668Z</time>
      </trkpt>
      <trkpt lat="43.1204" lon="6.31986">
        <ele>44.2</ele>
        <time>2022-10-02T08:14:58.000Z</time>
      </trkpt>
      <trkpt lat="43.12051" lon="6.31986">
        <ele>44.4</ele>
        <time>2022-10-02T08:15:19.156Z</time>
      </trkpt>
      <trkpt lat="43.1206" lon="6.31988">
        <ele>44.5</ele>
        <time>2022-10-02T08:15:35.403Z</time>
      </trkpt>
      <trkpt lat="43.1207" lon="6.31989">
        <ele>44.4</ele>
        <time>2022-10-02T08:15:39.979Z</time>
      </trkpt>
      <trkpt lat="43.1208" lon="6.31989">
        <ele>44.3</ele>
        <time>2022-10-02T08:15:44.542Z</time>
      </trkpt>
      <trkpt lat="43.12089" lon="6.31991">
        <ele>44.4</ele>
        <time>2022-10-02T08:16:00.789Z</time>
      </trkpt>
      <trkpt lat="43.121" lon="6.31993">
        <ele>44.6</ele>
        <time>2022-10-02T08:16:22.093Z</time>
      </trkpt>
      <trkpt lat="43.1211" lon="6.31996">
        <ele>44.9</ele>
        <time>2022-10-02T08:16:44.524Z</time>
      </trkpt>
      <trkpt lat="43.12118" lon="6.32001">
        <ele>45.2</ele>
        <time>2022-10-02T08:17:05.025Z</time>
      </trkpt>
      <trkpt lat="43.12128" lon="6.32007">
        <ele>45.8</ele>
        <time>2022-10-02T08:17:36.651Z</time>
      </trkpt>
      <trkpt lat="43.12135" lon="6.32017">
        <ele>46.4</ele>
        <time>2022-10-02T08:18:06.842Z</time>
      </trkpt>
      <trkpt lat="43.12144" lon="6.32024">
        <ele>46.7</ele>
        <time>2022-10-02T08:18:29.428Z</time>
      </trkpt>
      <trkpt lat="43.1215" lon="6.32033">
        <ele>47.7</ele>
        <time>2022-10-02T08:19:11.611Z</time>
      </trkpt>
      <trkpt lat="43.12159" lon="6.32039">
        <ele>48.2</ele>
        <time>2022-10-02T08:19:39.656Z</time>
      </trkpt>
      <trkpt lat="43.12168" lon="6.32044">
        <ele>48.1</ele>
        <time>2022-10-02T08:19:44.070Z</time>
      </trkpt>
      <trkpt lat="43.12173" lon="6.32055">
        <ele>48.5</ele>
        <time>2022-10-02T08:20:08.818Z</time>
      </trkpt>
      <trkpt lat="43.12178" lon="6.32066">
        <ele>49.2</ele>
        <time>2022-10-02T08:20:40.277Z</time>
      </trkpt>
      <trkpt lat="43.12179" lon="6.3208">
        <ele>50.5</ele>
        <time>2022-10-02T08:21:38.062Z</time>
      </trkpt>
      <trkpt lat="43.12179" lon="6.32093">
        <ele>51.6</ele>
        <time>2022-10-02T08:22:24.881Z</time>
      </trkpt>
      <trkpt lat="43.12181" lon="6.32107">
        <ele>52</ele>
        <time>2022-10-02T08:22:50.633Z</time>
      </trkpt>
      <trkpt lat="43.12188" lon="6.32118">
        <ele>51.2</ele>
        <time>2022-10-02T08:22:53.660Z</time>
      </trkpt>
      <trkpt lat="43.122" lon="6.32115">
        <ele>49.9</ele>
        <time>2022-10-02T08:22:57.126Z</time>
      </trkpt>
      <trkpt lat="43.12208" lon="6.32106">
        <ele>49.7</ele>
        <time>2022-10-02T08:23:01.329Z</time>
      </trkpt>
      <trkpt lat="43.12215" lon="6.32095">
        <ele>49.5</ele>
        <time>2022-10-02T08:23:05.681Z</time>
      </trkpt>
      <trkpt lat="43.12218" lon="6.32085">
        <ele>49</ele>
        <time>2022-10-02T08:23:07.788Z</time>
      </trkpt>
      <trkpt lat="43.12223" lon="6.32075">
        <ele>48.6</ele>
        <time>2022-10-02T08:23:10.539Z</time>
      </trkpt>
      <trkpt lat="43.12228" lon="6.32065">
        <ele>47.5</ele>
        <time>2022-10-02T08:23:13.053Z</time>
      </trkpt>
      <trkpt lat="43.12222" lon="6.32059">
        <ele>48.1</ele>
        <time>2022-10-02T08:23:39.131Z</time>
      </trkpt>
      <trkpt lat="43.12223" lon="6.32045">
        <ele>47.6</ele>
        <time>2022-10-02T08:23:42.225Z</time>
      </trkpt>
      <trkpt lat="43.12226" lon="6.32029">
        <ele>47</ele>
        <time>2022-10-02T08:23:45.825Z</time>
      </trkpt>
      <trkpt lat="43.12231" lon="6.32015">
        <ele>46.3</ele>
        <time>2022-10-02T08:23:48.906Z</time>
      </trkpt>
      <trkpt lat="43.1224" lon="6.32017">
        <ele>46.1</ele>
        <time>2022-10-02T08:23:52.497Z</time>
      </trkpt>
      <trkpt lat="43.12246" lon="6.32028">
        <ele>47</ele>
        <time>2022-10-02T08:24:30.497Z</time>
      </trkpt>
      <trkpt lat="43.12246" lon="6.32041">
        <ele>45.9</ele>
        <time>2022-10-02T08:24:33.194Z</time>
      </trkpt>
      <trkpt lat="43.12245" lon="6.32051">
        <ele>45.1</ele>
        <time>2022-10-02T08:24:35.287Z</time>
      </trkpt>
      <trkpt lat="43.1225" lon="6.32062">
        <ele>44.5</ele>
        <time>2022-10-02T08:24:37.811Z</time>
      </trkpt>
      <trkpt lat="43.1226" lon="6.32058">
        <ele>45.7</ele>
        <time>2022-10-02T08:25:28.780Z</time>
      </trkpt>
      <trkpt lat="43.12268" lon="6.32051">
        <ele>46.9</ele>
        <time>2022-10-02T08:26:22.065Z</time>
      </trkpt>
      <trkpt lat="43.12272" lon="6.32041">
        <ele>47.9</ele>
        <time>2022-10-02T08:27:05.235Z</time>
      </trkpt>
      <trkpt lat="43.12275" lon="6.32028">
        <ele>48.8</ele>
        <time>2022-10-02T08:27:43.182Z</time>
      </trkpt>
      <trkpt lat="43.12278" lon="6.32017">
        <ele>47.9</ele>
        <time>2022-10-02T08:27:45.617Z</time>
      </trkpt>
      <trkpt lat="43.12285" lon="6.32004">
        <ele>46.9</ele>
        <time>2022-10-02T08:27:48.967Z</time>
      </trkpt>
      <trkpt lat="43.12294" lon="6.32005">
        <ele>47.6</ele>
        <time>2022-10-02T08:28:19.844Z</time>
      </trkpt>
      <trkpt lat="43.12301" lon="6.32008">
        <ele>48.2</ele>
        <time>2022-10-02T08:28:45.813Z</time>
      </trkpt>
      <trkpt lat="43.12311" lon="6.32004">
        <ele>48.9</ele>
        <time>2022-10-02T08:29:18.718Z</time>
      </trkpt>
      <trkpt lat="43.12318" lon="6.31995">
        <ele>50.2</ele>
        <time>2022-10-02T08:30:18.070Z</time>
      </trkpt>
      <trkpt lat="43.12311" lon="6.31984">
        <ele>52.1</ele>
        <time>2022-10-02T08:31:23.927Z</time>
      </trkpt>
      <trkpt lat="43.12304" lon="6.31976">
        <ele>53.8</ele>
        <time>2022-10-02T08:32:20.287Z</time>
      </trkpt>
      <trkpt lat="43.12297" lon="6.31965">
        <ele>54.8</ele>
        <time>2022-10-02T08:33:02.189Z</time>
      </trkpt>
      <trkpt lat="43.12297" lon="6.31951">
        <ele>57.1</ele>
        <time>2022-10-02T08:34:05.367Z</time>
      </trkpt>
      <trkpt lat="43.12297" lon="6.31938">
        <ele>58.3</ele>
        <time>2022-10-02T08:34:58.667Z</time>
      </trkpt>
      <trkpt lat="43.12294" lon="6.31926">
        <ele>57.9</ele>
        <time>2022-10-02T08:35:01.598Z</time>
      </trkpt>
      <trkpt lat="43.12295" lon="6.31911">
        <ele>57.9</ele>
        <time>2022-10-02T08:35:19.220Z</time>
      </trkpt>
      <trkpt lat="43.12296" lon="6.31897">
        <ele>56.7</ele>
        <time>2022-10-02T08:35:22.138Z</time>
      </trkpt>
      <trkpt lat="43.12297" lon="6.31884">
        <ele>56</ele>
        <time>2022-10-02T08:35:24.849Z</time>
      </trkpt>
      <trkpt lat="43.12299" lon="6.31872">
        <ele>55.4</ele>
        <time>2022-10-02T08:35:27.402Z</time>
      </trkpt>
      <trkpt lat="43.123" lon="6.31861">
        <ele>54.4</ele>
        <time>2022-10-02T08:35:29.700Z</time>
      </trkpt>
      <trkpt lat="43.12296" lon="6.31852">
        <ele>55.5</ele>
        <time>2022-10-02T08:36:17.252Z</time>
      </trkpt>
      <trkpt lat="43.12285" lon="6.31852">
        <ele>56.3</ele>
        <time>2022-10-02T08:36:53.477Z</time>
      </trkpt>
      <trkpt lat="43.12279" lon="6.31855">
        <ele>56.5</ele>
        <time>2022-10-02T08:37:07.833Z</time>
      </trkpt>
      <trkpt lat="43.12274" lon="6.31867">
        <ele>54.8</ele>
        <time>2022-10-02T08:37:10.699Z</time>
      </trkpt>
      <trkpt lat="43.12272" lon="6.31876">
        <ele>52.9</ele>
        <time>2022-10-02T08:37:12.650Z</time>
      </trkpt>
      <trkpt lat="43.12267" lon="6.31886">
        <ele>51.2</ele>
        <time>2022-10-02T08:37:15.164Z</time>
      </trkpt>
      <trkpt lat="43.1226" lon="6.31897">
        <ele>50.9</ele>
        <time>2022-10-02T08:37:19.079Z</time>
      </trkpt>
      <trkpt lat="43.12254" lon="6.31907">
        <ele>49.8</ele>
        <time>2022-10-02T08:37:21.764Z</time>
      </trkpt>
      <trkpt lat="43.12248" lon="6.31915">
        <ele>48.2</ele>
        <time>2022-10-02T08:37:24.143Z</time>
      </trkpt>
      <trkpt lat="43.12243" lon="6.31926">
        <ele>47</ele>
        <time>2022-10-02T08:37:26.830Z</time>
      </trkpt>
      <trkpt lat="43.12236" lon="6.31936">
        <ele>45.9</ele>
        <time>2022-10-02T08:37:29.704Z</time>
      </trkpt>
      <trkpt lat="43.1223" lon="6.31946">
        <ele>44.9</ele>
        <time>2022-10-02T08:37:32.389Z</time>
      </trkpt>
      <trkpt lat="43.1222" lon="6.3195">
        <ele>44.2</ele>
        <time>2022-10-02T08:37:35.349Z</time>
      </trkpt>
      <trkpt lat="43.12208" lon="6.31947">
        <ele>43.7</ele>
        <time>2022-10-02T08:37:39.291Z</time>
      </trkpt>
      <trkpt lat="43.12197" lon="6.31941">
        <ele>43.8</ele>
        <time>2022-10-02T08:37:59.861Z</time>
      </trkpt>
      <trkpt lat="43.12189" lon="6.31934">
        <ele>44.9</ele>
        <time>2022-10-02T08:38:46.674Z</time>
      </trkpt>
      <trkpt lat="43.12181" lon="6.31923">
        <ele>46.1</ele>
        <time>2022-10-02T08:39:36.789Z</time>
      </trkpt>
      <trkpt lat="43.12173" lon="6.31914">
        <ele>46.3</ele>
        <time>2022-10-02T08:39:56.949Z</time>
      </trkpt>
      <trkpt lat="43.12166" lon="6.31903">
        <ele>47</ele>
        <time>2022-10-02T08:40:30.232Z</time>
      </trkpt>
      <trkpt lat="43.12161" lon="6.3189">
        <ele>48.4</ele>
        <time>2022-10-02T08:41:33.874Z</time>
      </trkpt>
      <trkpt lat="43.12157" lon="6.31879">
        <ele>49.8</ele>
        <time>2022-10-02T08:42:29.334Z</time>
      </trkpt>
      <trkpt lat="43.12152" lon="6.31866">
        <ele>50.9</ele>
        <time>2022-10-02T08:43:15.186Z</time>
      </trkpt>
      <trkpt lat="43.12141" lon="6.31864">
        <ele>49.1</ele>
        <time>2022-10-02T08:43:18.339Z</time>
      </trkpt>
      <trkpt lat="43.12132" lon="6.3187">
        <ele>47.7</ele>
        <time>2022-10-02T08:43:21.183Z</time>
      </trkpt>
      <trkpt lat="43.12128" lon="6.31881">
        <ele>46.6</ele>
        <time>2022-10-02T08:43:23.732Z</time>
      </trkpt>
      <trkpt lat="43.1212" lon="6.31884">
        <ele>45.4</ele>
        <time>2022-10-02T08:43:26.089Z</time>
      </trkpt>
      <trkpt lat="43.12115" lon="6.31887">
        <ele>44.6</ele>
        <time>2022-10-02T08:43:27.640Z</time>
      </trkpt>
      <trkpt lat="43.12106" lon="6.31881">
        <ele>44.6</ele>
        <time>2022-10-02T08:43:43.684Z</time>
      </trkpt>
      <trkpt lat="43.12097" lon="6.31878">
        <ele>44.5</ele>
        <time>2022-10-02T08:43:47.866Z</time>
      </trkpt>
      <trkpt lat="43.12088" lon="6.31882">
        <ele>42.9</ele>
        <time>2022-10-02T08:43:50.554Z</time>
      </trkpt>
      <trkpt lat="43.12078" lon="6.31889">
        <ele>41.5</ele>
        <time>2022-10-02T08:43:53.745Z</time>
      </trkpt>
      <trkpt lat="43.12066" lon="6.3189">
        <ele>42.2</ele>
        <time>2022-10-02T08:44:29.361Z</time>
      </trkpt>
      <trkpt lat="43.12056" lon="6.31886">
        <ele>43.7</ele>
        <time>2022-10-02T08:45:33.769Z</time>
      </trkpt>
      <trkpt lat="43.12044" lon="6.31883">
        <ele>43.7</ele>
        <time>2022-10-02T08:45:53.322Z</time>
      </trkpt>
      <trkpt lat="43.12036" lon="6.31873">
        <ele>45.3</ele>
        <time>2022-10-02T08:47:00.278Z</time>
      </trkpt>
      <trkpt lat="43.12029" lon="6.3186">
        <ele>47.4</ele>
        <time>2022-10-02T08:48:13.182Z</time>
      </trkpt>
      <trkpt lat="43.12019" lon="6.31853">
        <ele>46.4</ele>
        <time>2022-10-02T08:48:16.373Z</time>
      </trkpt>
      <trkpt lat="43.12012" lon="6.31844">
        <ele>46.1</ele>
        <time>2022-10-02T08:48:19.789Z</time>
      </trkpt>
      <trkpt lat="43.12011" lon="6.31834">
        <ele>47.1</ele>
        <time>2022-10-02T08:49:05.340Z</time>
      </trkpt>
      <trkpt lat="43.12012" lon="6.31831">
        <ele>47.3</ele>
        <time>2022-10-02T08:49:13.954Z</time>
      </trkpt>
      <trkpt lat="43.12012" lon="6.31822">
        <ele>47.1</ele>
        <time>2022-10-02T08:49:16.311Z</time>
      </trkpt>
      <trkpt lat="43.12018" lon="6.3181">
        <ele>48.5</ele>
        <time>2022-10-02T08:50:20.497Z</time>
      </trkpt>
      <trkpt lat="43.12018" lon="6.31802">
        <ele>48.4</ele>
        <time>2022-10-02T08:50:22.931Z</time>
      </trkpt>
      <trkpt lat="43.1201" lon="6.31793">
        <ele>46.4</ele>
        <time>2022-10-02T08:50:25.872Z</time>
      </trkpt>
      <trkpt lat="43.11999" lon="6.31796">
        <ele>43.3</ele>
        <time>2022-10-02T08:50:29.059Z</time>
      </trkpt>
      <trkpt lat="43.11992" lon="6.31803">
        <ele>42.2</ele>
        <time>2022-10-02T08:50:31.522Z</time>
      </trkpt>
      <trkpt lat="43.11983" lon="6.31806">
        <ele>41.4</ele>
        <time>2022-10-02T08:50:34.154Z</time>
      </trkpt>
      <trkpt lat="43.11978" lon="6.31796">
        <ele>43.3</ele>
        <time>2022-10-02T08:51:28.856Z</time>
      </trkpt>
      <trkpt lat="43.11969" lon="6.31794">
        <ele>43.8</ele>
        <time>2022-10-02T08:51:55.248Z</time>
      </trkpt>
      <trkpt lat="43.11961" lon="6.31802">
        <ele>41.7</ele>
        <time>2022-10-02T08:51:58.062Z</time>
      </trkpt>
      <trkpt lat="43.11953" lon="6.31797">
        <ele>42.5</ele>
        <time>2022-10-02T08:52:31.754Z</time>
      </trkpt>
      <trkpt lat="43.1195" lon="6.31787">
        <ele>44</ele>
        <time>2022-10-02T08:53:20.547Z</time>
      </trkpt>
      <trkpt lat="43.11947" lon="6.31779">
        <ele>45.1</ele>
        <time>2022-10-02T08:54:01.136Z</time>
      </trkpt>
      <trkpt lat="43.11936" lon="6.31774">
        <ele>44.6</ele>
        <time>2022-10-02T08:54:04.808Z</time>
      </trkpt>
      <trkpt lat="43.11927" lon="6.31771">
        <ele>43.9</ele>
        <time>2022-10-02T08:54:07.440Z</time>
      </trkpt>
      <trkpt lat="43.11921" lon="6.3177">
        <ele>43.1</ele>
        <time>2022-10-02T08:54:09.157Z</time>
      </trkpt>
      <trkpt lat="43.11916" lon="6.3176">
        <ele>43.9</ele>
        <time>2022-10-02T08:54:42.889Z</time>
      </trkpt>
      <trkpt lat="43.11909" lon="6.3175">
        <ele>42.8</ele>
        <time>2022-10-02T08:54:45.762Z</time>
      </trkpt>
      <trkpt lat="43.11901" lon="6.31746">
        <ele>40</ele>
        <time>2022-10-02T08:54:48.182Z</time>
      </trkpt>
      <trkpt lat="43.11895" lon="6.31752">
        <ele>37.8</ele>
        <time>2022-10-02T08:54:50.293Z</time>
      </trkpt>
      <trkpt lat="43.11889" lon="6.31763">
        <ele>37.8</ele>
        <time>2022-10-02T08:55:06.360Z</time>
      </trkpt>
      <trkpt lat="43.11882" lon="6.31772">
        <ele>38.2</ele>
        <time>2022-10-02T08:55:31.246Z</time>
      </trkpt>
      <trkpt lat="43.11874" lon="6.31781">
        <ele>37.7</ele>
        <time>2022-10-02T08:55:34.376Z</time>
      </trkpt>
      <trkpt lat="43.11865" lon="6.31786">
        <ele>36.9</ele>
        <time>2022-10-02T08:55:37.136Z</time>
      </trkpt>
      <trkpt lat="43.11856" lon="6.31793">
        <ele>39</ele>
        <time>2022-10-02T08:56:41.123Z</time>
      </trkpt>
      <trkpt lat="43.11847" lon="6.31797">
        <ele>41.8</ele>
        <time>2022-10-02T08:57:39.623Z</time>
      </trkpt>
      <trkpt lat="43.1184" lon="6.31799">
        <ele>43.7</ele>
        <time>2022-10-02T08:58:23.833Z</time>
      </trkpt>
      <trkpt lat="43.1184" lon="6.31794">
        <ele>42.8</ele>
        <time>2022-10-02T08:58:24.870Z</time>
      </trkpt>
      <trkpt lat="43.1184" lon="6.31781">
        <ele>40.6</ele>
        <time>2022-10-02T08:58:27.566Z</time>
      </trkpt>
      <trkpt lat="43.11836" lon="6.31771">
        <ele>40.2</ele>
        <time>2022-10-02T08:58:30.089Z</time>
      </trkpt>
      <trkpt lat="43.11834" lon="6.31761">
        <ele>39.3</ele>
        <time>2022-10-02T08:58:32.239Z</time>
      </trkpt>
      <trkpt lat="43.11827" lon="6.3175">
        <ele>39.7</ele>
        <time>2022-10-02T08:58:58.266Z</time>
      </trkpt>
      <trkpt lat="43.1182" lon="6.31738">
        <ele>38.6</ele>
        <time>2022-10-02T08:59:01.452Z</time>
      </trkpt>
      <trkpt lat="43.11815" lon="6.31727">
        <ele>37.5</ele>
        <time>2022-10-02T08:59:04.140Z</time>
      </trkpt>
      <trkpt lat="43.11808" lon="6.31718">
        <ele>37.6</ele>
        <time>2022-10-02T08:59:21.151Z</time>
      </trkpt>
      <trkpt lat="43.11802" lon="6.31707">
        <ele>36.3</ele>
        <time>2022-10-02T08:59:23.999Z</time>
      </trkpt>
      <trkpt lat="43.11795" lon="6.31699">
        <ele>35.4</ele>
        <time>2022-10-02T08:59:26.590Z</time>
      </trkpt>
      <trkpt lat="43.11787" lon="6.31692">
        <ele>35.1</ele>
        <time>2022-10-02T08:59:29.955Z</time>
      </trkpt>
      <trkpt lat="43.11776" lon="6.31688">
        <ele>35.5</ele>
        <time>2022-10-02T08:59:56.859Z</time>
      </trkpt>
      <trkpt lat="43.1177" lon="6.31684">
        <ele>34.9</ele>
        <time>2022-10-02T08:59:58.755Z</time>
      </trkpt>
      <trkpt lat="43.11759" lon="6.31681">
        <ele>35</ele>
        <time>2022-10-02T09:00:18.332Z</time>
      </trkpt>
      <trkpt lat="43.1175" lon="6.31674">
        <ele>34.3</ele>
        <time>2022-10-02T09:00:21.273Z</time>
      </trkpt>
      <trkpt lat="43.11743" lon="6.31663">
        <ele>34.1</ele>
        <time>2022-10-02T09:00:25.626Z</time>
      </trkpt>
      <trkpt lat="43.11738" lon="6.31652">
        <ele>33.2</ele>
        <time>2022-10-02T09:00:28.314Z</time>
      </trkpt>
      <trkpt lat="43.11731" lon="6.31643">
        <ele>33.4</ele>
        <time>2022-10-02T09:00:47.331Z</time>
      </trkpt>
      <trkpt lat="43.11727" lon="6.31631">
        <ele>32.8</ele>
        <time>2022-10-02T09:00:49.923Z</time>
      </trkpt>
      <trkpt lat="43.11721" lon="6.3162">
        <ele>32.2</ele>
        <time>2022-10-02T09:00:52.674Z</time>
      </trkpt>
      <trkpt lat="43.11715" lon="6.31611">
        <ele>31.6</ele>
        <time>2022-10-02T09:00:55.203Z</time>
      </trkpt>
      <trkpt lat="43.11709" lon="6.316">
        <ele>30.2</ele>
        <time>2022-10-02T09:00:58.051Z</time>
      </trkpt>
      <trkpt lat="43.11702" lon="6.3159">
        <ele>29.2</ele>
        <time>2022-10-02T09:01:00.924Z</time>
      </trkpt>
      <trkpt lat="43.11696" lon="6.31582">
        <ele>28.5</ele>
        <time>2022-10-02T09:01:03.303Z</time>
      </trkpt>
      <trkpt lat="43.11685" lon="6.31579">
        <ele>27.9</ele>
        <time>2022-10-02T09:01:06.547Z</time>
      </trkpt>
      <trkpt lat="43.11675" lon="6.31576">
        <ele>27.5</ele>
        <time>2022-10-02T09:01:09.916Z</time>
      </trkpt>
      <trkpt lat="43.11666" lon="6.31575">
        <ele>27.6</ele>
        <time>2022-10-02T09:01:26.024Z</time>
      </trkpt>
      <trkpt lat="43.11654" lon="6.31572">
        <ele>26.6</ele>
        <time>2022-10-02T09:01:29.490Z</time>
      </trkpt>
      <trkpt lat="43.11645" lon="6.31564">
        <ele>25.2</ele>
        <time>2022-10-02T09:01:32.539Z</time>
      </trkpt>
      <trkpt lat="43.11637" lon="6.31555">
        <ele>24.1</ele>
        <time>2022-10-02T09:01:35.480Z</time>
      </trkpt>
      <trkpt lat="43.1163" lon="6.31547">
        <ele>23.9</ele>
        <time>2022-10-02T09:01:39.070Z</time>
      </trkpt>
      <trkpt lat="43.1162" lon="6.31538">
        <ele>23.3</ele>
        <time>2022-10-02T09:01:42.630Z</time>
      </trkpt>
      <trkpt lat="43.11614" lon="6.31528">
        <ele>22</ele>
        <time>2022-10-02T09:01:45.315Z</time>
      </trkpt>
      <trkpt lat="43.1161" lon="6.31514">
        <ele>21.2</ele>
        <time>2022-10-02T09:01:48.434Z</time>
      </trkpt>
      <trkpt lat="43.11607" lon="6.31502">
        <ele>21.2</ele>
        <time>2022-10-02T09:02:03.275Z</time>
      </trkpt>
      <trkpt lat="43.11606" lon="6.31488">
        <ele>20.9</ele>
        <time>2022-10-02T09:02:07.008Z</time>
      </trkpt>
      <trkpt lat="43.11605" lon="6.31474">
        <ele>20.4</ele>
        <time>2022-10-02T09:02:10.102Z</time>
      </trkpt>
      <trkpt lat="43.11603" lon="6.3146">
        <ele>19.6</ele>
        <time>2022-10-02T09:02:13.061Z</time>
      </trkpt>
      <trkpt lat="43.116" lon="6.31447">
        <ele>18.8</ele>
        <time>2022-10-02T09:02:15.889Z</time>
      </trkpt>
      <trkpt lat="43.11595" lon="6.31437">
        <ele>18.5</ele>
        <time>2022-10-02T09:02:18.953Z</time>
      </trkpt>
      <trkpt lat="43.11597" lon="6.31436">
        <ele>18.3</ele>
        <time>2022-10-02T09:02:19.558Z</time>
      </trkpt>
      <trkpt lat="43.11607" lon="6.31438">
        <ele>17.5</ele>
        <time>2022-10-02T09:02:22.430Z</time>
      </trkpt>
      <trkpt lat="43.1161" lon="6.31423">
        <ele>17</ele>
        <time>2022-10-02T09:02:25.997Z</time>
      </trkpt>
      <trkpt lat="43.11609" lon="6.31409">
        <ele>17.2</ele>
        <time>2022-10-02T09:02:46.030Z</time>
      </trkpt>
      <trkpt lat="43.11604" lon="6.31406">
        <ele>16.9</ele>
        <time>2022-10-02T09:02:47.590Z</time>
      </trkpt>
      <trkpt lat="43.11603" lon="6.31391">
        <ele>17.1</ele>
        <time>2022-10-02T09:03:08.738Z</time>
      </trkpt>
      <trkpt lat="43.11601" lon="6.31373">
        <ele>19.1</ele>
        <time>2022-10-02T09:04:30.911Z</time>
      </trkpt>
      <trkpt lat="43.11597" lon="6.31361">
        <ele>20.5</ele>
        <time>2022-10-02T09:05:30.450Z</time>
      </trkpt>
      <trkpt lat="43.11593" lon="6.31348">
        <ele>20.5</ele>
        <time>2022-10-02T09:05:46.957Z</time>
      </trkpt>
      <trkpt lat="43.11591" lon="6.31335">
        <ele>20.5</ele>
        <time>2022-10-02T09:06:02.502Z</time>
      </trkpt>
      <trkpt lat="43.11586" lon="6.31324">
        <ele>20.5</ele>
        <time>2022-10-02T09:06:17.665Z</time>
      </trkpt>
      <trkpt lat="43.1158" lon="6.31314">
        <ele>20.2</ele>
        <time>2022-10-02T09:06:21.010Z</time>
      </trkpt>
      <trkpt lat="43.11575" lon="6.31301">
        <ele>19.8</ele>
        <time>2022-10-02T09:06:24.602Z</time>
      </trkpt>
      <trkpt lat="43.11571" lon="6.3129">
        <ele>19.5</ele>
        <time>2022-10-02T09:06:27.723Z</time>
      </trkpt>
      <trkpt lat="43.11565" lon="6.3128">
        <ele>19</ele>
        <time>2022-10-02T09:06:30.469Z</time>
      </trkpt>
      <trkpt lat="43.11559" lon="6.31268">
        <ele>18.7</ele>
        <time>2022-10-02T09:06:34.368Z</time>
      </trkpt>
      <trkpt lat="43.11553" lon="6.31258">
        <ele>18.5</ele>
        <time>2022-10-02T09:06:38.122Z</time>
      </trkpt>
      <trkpt lat="43.1155" lon="6.31247">
        <ele>18.6</ele>
        <time>2022-10-02T09:06:53.506Z</time>
      </trkpt>
      <trkpt lat="43.11545" lon="6.31236">
        <ele>18.5</ele>
        <time>2022-10-02T09:06:57.790Z</time>
      </trkpt>
      <trkpt lat="43.11541" lon="6.31225">
        <ele>18.4</ele>
        <time>2022-10-02T09:07:01.821Z</time>
      </trkpt>
      <trkpt lat="43.11537" lon="6.31212">
        <ele>18.2</ele>
        <time>2022-10-02T09:07:05.998Z</time>
      </trkpt>
      <trkpt lat="43.11531" lon="6.312">
        <ele>18.1</ele>
        <time>2022-10-02T09:07:10.880Z</time>
      </trkpt>
      <trkpt lat="43.11526" lon="6.31187">
        <ele>18.2</ele>
        <time>2022-10-02T09:07:29.679Z</time>
      </trkpt>
      <trkpt lat="43.11521" lon="6.31175">
        <ele>18.3</ele>
        <time>2022-10-02T09:07:47.462Z</time>
      </trkpt>
      <trkpt lat="43.11516" lon="6.31164">
        <ele>18.3</ele>
        <time>2022-10-02T09:08:02.624Z</time>
      </trkpt>
      <trkpt lat="43.11511" lon="6.31154">
        <ele>18.6</ele>
        <time>2022-10-02T09:08:23.196Z</time>
      </trkpt>
      <trkpt lat="43.11509" lon="6.31147">
        <ele>19.1</ele>
        <time>2022-10-02T09:08:44.248Z</time>
      </trkpt>
      <trkpt lat="43.11511" lon="6.31145">
        <ele>19.2</ele>
        <time>2022-10-02T09:08:50.547Z</time>
      </trkpt>
      <trkpt lat="43.11516" lon="6.31141">
        <ele>19.3</ele>
        <time>2022-10-02T09:09:01.572Z</time>
      </trkpt>
      <trkpt lat="43.11523" lon="6.3113">
        <ele>20.1</ele>
        <time>2022-10-02T09:09:37.306Z</time>
      </trkpt>
      <trkpt lat="43.1153" lon="6.3112">
        <ele>21.1</ele>
        <time>2022-10-02T09:10:19.008Z</time>
      </trkpt>
      <trkpt lat="43.11537" lon="6.31106">
        <ele>22.3</ele>
        <time>2022-10-02T09:11:09.116Z</time>
      </trkpt>
      <trkpt lat="43.11545" lon="6.31096">
        <ele>23.2</ele>
        <time>2022-10-02T09:11:47.878Z</time>
      </trkpt>
      <trkpt lat="43.11552" lon="6.31086">
        <ele>23.9</ele>
        <time>2022-10-02T09:12:20.307Z</time>
      </trkpt>
      <trkpt lat="43.11558" lon="6.31076">
        <ele>24.9</ele>
        <time>2022-10-02T09:13:02.067Z</time>
      </trkpt>
      <trkpt lat="43.11565" lon="6.31069">
        <ele>25.5</ele>
        <time>2022-10-02T09:13:29.860Z</time>
      </trkpt>
      <trkpt lat="43.11574" lon="6.3106">
        <ele>26.1</ele>
        <time>2022-10-02T09:14:01.899Z</time>
      </trkpt>
      <trkpt lat="43.1158" lon="6.31048">
        <ele>27</ele>
        <time>2022-10-02T09:14:40.437Z</time>
      </trkpt>
      <trkpt lat="43.1159" lon="6.31041">
        <ele>27.2</ele>
        <time>2022-10-02T09:15:01.946Z</time>
      </trkpt>
      <trkpt lat="43.11592" lon="6.31033">
        <ele>27.9</ele>
        <time>2022-10-02T09:15:31.542Z</time>
      </trkpt>
      <trkpt lat="43.11583" lon="6.31043">
        <ele>27.3</ele>
        <time>2022-10-02T09:15:34.942Z</time>
      </trkpt>
      <trkpt lat="43.11578" lon="6.31044">
        <ele>27.7</ele>
        <time>2022-10-02T09:15:52.450Z</time>
      </trkpt>
      <trkpt lat="43.1157" lon="6.31043">
        <ele>28.6</ele>
        <time>2022-10-02T09:16:30.384Z</time>
      </trkpt>
      <trkpt lat="43.11558" lon="6.31039">
        <ele>30.1</ele>
        <time>2022-10-02T09:17:35.474Z</time>
      </trkpt>
      <trkpt lat="43.11548" lon="6.31037">
        <ele>30.6</ele>
        <time>2022-10-02T09:18:03.702Z</time>
      </trkpt>
      <trkpt lat="43.1154" lon="6.31032">
        <ele>30.9</ele>
        <time>2022-10-02T09:18:24.204Z</time>
      </trkpt>
      <trkpt lat="43.11534" lon="6.31028">
        <ele>31.2</ele>
        <time>2022-10-02T09:18:42.309Z</time>
      </trkpt>
      <trkpt lat="43.11524" lon="6.31023">
        <ele>31</ele>
        <time>2022-10-02T09:18:46.658Z</time>
      </trkpt>
      <trkpt lat="43.11518" lon="6.31014">
        <ele>30.8</ele>
        <time>2022-10-02T09:18:50.140Z</time>
      </trkpt>
      <trkpt lat="43.11519" lon="6.30999">
        <ele>30.6</ele>
        <time>2022-10-02T09:18:54.665Z</time>
      </trkpt>
      <trkpt lat="43.11518" lon="6.30987">
        <ele>29.7</ele>
        <time>2022-10-02T09:18:57.170Z</time>
      </trkpt>
      <trkpt lat="43.11513" lon="6.30976">
        <ele>28.7</ele>
        <time>2022-10-02T09:18:59.858Z</time>
      </trkpt>
      <trkpt lat="43.11504" lon="6.30966">
        <ele>27.7</ele>
        <time>2022-10-02T09:19:03.151Z</time>
      </trkpt>
      <trkpt lat="43.115" lon="6.30956">
        <ele>26.8</ele>
        <time>2022-10-02T09:19:05.516Z</time>
      </trkpt>
      <trkpt lat="43.11495" lon="6.30943">
        <ele>26.1</ele>
        <time>2022-10-02T09:19:08.338Z</time>
      </trkpt>
      <trkpt lat="43.11484" lon="6.30938">
        <ele>26.2</ele>
        <time>2022-10-02T09:19:28.510Z</time>
      </trkpt>
      <trkpt lat="43.11478" lon="6.30934">
        <ele>26.1</ele>
        <time>2022-10-02T09:19:31.366Z</time>
      </trkpt>
      <trkpt lat="43.11473" lon="6.30925">
        <ele>25.6</ele>
        <time>2022-10-02T09:19:33.619Z</time>
      </trkpt>
      <trkpt lat="43.11476" lon="6.30913">
        <ele>24.6</ele>
        <time>2022-10-02T09:19:36.250Z</time>
      </trkpt>
      <trkpt lat="43.1148" lon="6.30898">
        <ele>23.3</ele>
        <time>2022-10-02T09:19:39.562Z</time>
      </trkpt>
      <trkpt lat="43.11484" lon="6.30882">
        <ele>22.6</ele>
        <time>2022-10-02T09:19:43.039Z</time>
      </trkpt>
      <trkpt lat="43.11489" lon="6.30868">
        <ele>22.4</ele>
        <time>2022-10-02T09:19:47.755Z</time>
      </trkpt>
      <trkpt lat="43.11498" lon="6.30854">
        <ele>22.8</ele>
        <time>2022-10-02T09:20:17.618Z</time>
      </trkpt>
      <trkpt lat="43.11503" lon="6.30835">
        <ele>23.1</ele>
        <time>2022-10-02T09:20:46.665Z</time>
      </trkpt>
      <trkpt lat="43.11501" lon="6.30821">
        <ele>22.6</ele>
        <time>2022-10-02T09:20:49.822Z</time>
      </trkpt>
      <trkpt lat="43.11502" lon="6.30808">
        <ele>22.2</ele>
        <time>2022-10-02T09:20:52.879Z</time>
      </trkpt>
      <trkpt lat="43.11506" lon="6.30794">
        <ele>22.1</ele>
        <time>2022-10-02T09:20:57.947Z</time>
      </trkpt>
      <trkpt lat="43.1151" lon="6.3078">
        <ele>22.1</ele>
        <time>2022-10-02T09:21:15.538Z</time>
      </trkpt>
      <trkpt lat="43.11516" lon="6.30768">
        <ele>22.7</ele>
        <time>2022-10-02T09:21:46.623Z</time>
      </trkpt>
      <trkpt lat="43.1152" lon="6.30755">
        <ele>23.2</ele>
        <time>2022-10-02T09:22:15.216Z</time>
      </trkpt>
      <trkpt lat="43.11525" lon="6.30742">
        <ele>23.2</ele>
        <time>2022-10-02T09:22:32.410Z</time>
      </trkpt>
      <trkpt lat="43.11529" lon="6.3073">
        <ele>22.7</ele>
        <time>2022-10-02T09:22:35.232Z</time>
      </trkpt>
      <trkpt lat="43.11534" lon="6.30718">
        <ele>22.7</ele>
        <time>2022-10-02T09:22:51.400Z</time>
      </trkpt>
      <trkpt lat="43.11539" lon="6.30705">
        <ele>23.2</ele>
        <time>2022-10-02T09:23:20.811Z</time>
      </trkpt>
      <trkpt lat="43.11543" lon="6.30692">
        <ele>23.5</ele>
        <time>2022-10-02T09:23:43.327Z</time>
      </trkpt>
      <trkpt lat="43.11546" lon="6.30681">
        <ele>23.1</ele>
        <time>2022-10-02T09:23:45.957Z</time>
      </trkpt>
      <trkpt lat="43.1155" lon="6.30668">
        <ele>22.7</ele>
        <time>2022-10-02T09:23:49.354Z</time>
      </trkpt>
      <trkpt lat="43.11554" lon="6.30657">
        <ele>22.5</ele>
        <time>2022-10-02T09:23:52.872Z</time>
      </trkpt>
      <trkpt lat="43.11558" lon="6.30646">
        <ele>22.4</ele>
        <time>2022-10-02T09:23:56.904Z</time>
      </trkpt>
      <trkpt lat="43.11563" lon="6.30634">
        <ele>22.5</ele>
        <time>2022-10-02T09:24:14.687Z</time>
      </trkpt>
      <trkpt lat="43.11566" lon="6.30622">
        <ele>22.7</ele>
        <time>2022-10-02T09:24:33.189Z</time>
      </trkpt>
      <trkpt lat="43.11569" lon="6.30611">
        <ele>23</ele>
        <time>2022-10-02T09:24:53.413Z</time>
      </trkpt>
      <trkpt lat="43.11574" lon="6.30598">
        <ele>22.9</ele>
        <time>2022-10-02T09:24:58.351Z</time>
      </trkpt>
      <trkpt lat="43.11577" lon="6.30585">
        <ele>22.6</ele>
        <time>2022-10-02T09:25:01.934Z</time>
      </trkpt>
      <trkpt lat="43.11582" lon="6.30572">
        <ele>22.1</ele>
        <time>2022-10-02T09:25:05.226Z</time>
      </trkpt>
      <trkpt lat="43.11586" lon="6.30561">
        <ele>21.5</ele>
        <time>2022-10-02T09:25:07.775Z</time>
      </trkpt>
      <trkpt lat="43.1159" lon="6.30549">
        <ele>21.4</ele>
        <time>2022-10-02T09:25:12.147Z</time>
      </trkpt>
      <trkpt lat="43.11595" lon="6.30537">
        <ele>21.5</ele>
        <time>2022-10-02T09:25:29.929Z</time>
      </trkpt>
      <trkpt lat="43.11601" lon="6.30518">
        <ele>21.3</ele>
        <time>2022-10-02T09:25:36.540Z</time>
      </trkpt>
      <trkpt lat="43.11606" lon="6.30504">
        <ele>20.9</ele>
        <time>2022-10-02T09:25:40.431Z</time>
      </trkpt>
      <trkpt lat="43.1161" lon="6.30491">
        <ele>20.6</ele>
        <time>2022-10-02T09:25:44.178Z</time>
      </trkpt>
      <trkpt lat="43.11614" lon="6.30477">
        <ele>20.4</ele>
        <time>2022-10-02T09:25:48.692Z</time>
      </trkpt>
      <trkpt lat="43.11617" lon="6.30462">
        <ele>20.1</ele>
        <time>2022-10-02T09:25:52.944Z</time>
      </trkpt>
      <trkpt lat="43.1162" lon="6.30448">
        <ele>19.8</ele>
        <time>2022-10-02T09:25:56.859Z</time>
      </trkpt>
      <trkpt lat="43.11623" lon="6.30436">
        <ele>19.6</ele>
        <time>2022-10-02T09:26:00.520Z</time>
      </trkpt>
      <trkpt lat="43.11628" lon="6.30425">
        <ele>19.5</ele>
        <time>2022-10-02T09:26:04.803Z</time>
      </trkpt>
      <trkpt lat="43.11633" lon="6.30413">
        <ele>19.4</ele>
        <time>2022-10-02T09:26:09.411Z</time>
      </trkpt>
      <trkpt lat="43.11637" lon="6.30401">
        <ele>19.3</ele>
        <time>2022-10-02T09:26:13.782Z</time>
      </trkpt>
      <trkpt lat="43.11642" lon="6.30388">
        <ele>19</ele>
        <time>2022-10-02T09:26:17.733Z</time>
      </trkpt>
      <trkpt lat="43.11646" lon="6.30375">
        <ele>18.5</ele>
        <time>2022-10-02T09:26:20.840Z</time>
      </trkpt>
      <trkpt lat="43.1165" lon="6.30364">
        <ele>18.3</ele>
        <time>2022-10-02T09:26:24.359Z</time>
      </trkpt>
      <trkpt lat="43.11653" lon="6.30352">
        <ele>18.4</ele>
        <time>2022-10-02T09:26:40.830Z</time>
      </trkpt>
      <trkpt lat="43.11657" lon="6.30339">
        <ele>18.4</ele>
        <time>2022-10-02T09:26:57.337Z</time>
      </trkpt>
      <trkpt lat="43.11659" lon="6.30327">
        <ele>18.2</ele>
        <time>2022-10-02T09:27:00.863Z</time>
      </trkpt>
      <trkpt lat="43.1166" lon="6.30308">
        <ele>17.6</ele>
        <time>2022-10-02T09:27:05.267Z</time>
      </trkpt>
      <trkpt lat="43.11666" lon="6.30295">
        <ele>17.6</ele>
        <time>2022-10-02T09:27:23.264Z</time>
      </trkpt>
      <trkpt lat="43.11672" lon="6.30301">
        <ele>18.2</ele>
        <time>2022-10-02T09:27:49.342Z</time>
      </trkpt>
      <trkpt lat="43.11678" lon="6.30308">
        <ele>18.9</ele>
        <time>2022-10-02T09:28:18.967Z</time>
      </trkpt>
      <trkpt lat="43.11682" lon="6.30299">
        <ele>18.9</ele>
        <time>2022-10-02T09:28:31.296Z</time>
      </trkpt>
      <trkpt lat="43.11682" lon="6.30297">
        <ele>18.8</ele>
        <time>2022-10-02T09:28:31.711Z</time>
      </trkpt>
      <trkpt lat="43.11688" lon="6.3028">
        <ele>18.6</ele>
        <time>2022-10-02T09:28:37.644Z</time>
      </trkpt>
      <trkpt lat="43.11693" lon="6.30266">
        <ele>18.9</ele>
        <time>2022-10-02T09:29:01.688Z</time>
      </trkpt>
      <trkpt lat="43.11698" lon="6.30252">
        <ele>19</ele>
        <time>2022-10-02T09:29:21.522Z</time>
      </trkpt>
      <trkpt lat="43.11702" lon="6.30237">
        <ele>18.6</ele>
        <time>2022-10-02T09:29:25.542Z</time>
      </trkpt>
      <trkpt lat="43.11695" lon="6.3022">
        <ele>18.1</ele>
        <time>2022-10-02T09:29:30.418Z</time>
      </trkpt>
      <trkpt lat="43.11684" lon="6.30213">
        <ele>18</ele>
        <time>2022-10-02T09:29:36.084Z</time>
      </trkpt>
      <trkpt lat="43.11672" lon="6.30205">
        <ele>17.8</ele>
        <time>2022-10-02T09:29:41.795Z</time>
      </trkpt>
      <trkpt lat="43.11661" lon="6.30198">
        <ele>17.6</ele>
        <time>2022-10-02T09:29:46.890Z</time>
      </trkpt>
      <trkpt lat="43.1165" lon="6.30189">
        <ele>18</ele>
        <time>2022-10-02T09:30:15.652Z</time>
      </trkpt>
      <trkpt lat="43.1164" lon="6.3018">
        <ele>18.6</ele>
        <time>2022-10-02T09:30:49.220Z</time>
      </trkpt>
      <trkpt lat="43.11631" lon="6.30172">
        <ele>18.9</ele>
        <time>2022-10-02T09:31:12.339Z</time>
      </trkpt>
      <trkpt lat="43.1162" lon="6.30164">
        <ele>18.9</ele>
        <time>2022-10-02T09:31:32.302Z</time>
      </trkpt>
      <trkpt lat="43.11611" lon="6.30158">
        <ele>18.6</ele>
        <time>2022-10-02T09:31:35.911Z</time>
      </trkpt>
      <trkpt lat="43.11604" lon="6.30147">
        <ele>18.7</ele>
        <time>2022-10-02T09:31:54.593Z</time>
      </trkpt>
      <trkpt lat="43.11596" lon="6.30137">
        <ele>18.5</ele>
        <time>2022-10-02T09:31:59.035Z</time>
      </trkpt>
      <trkpt lat="43.11588" lon="6.30129">
        <ele>17.9</ele>
        <time>2022-10-02T09:32:01.738Z</time>
      </trkpt>
      <trkpt lat="43.11579" lon="6.30118">
        <ele>17.3</ele>
        <time>2022-10-02T09:32:05.339Z</time>
      </trkpt>
      <trkpt lat="43.11571" lon="6.30109">
        <ele>16.8</ele>
        <time>2022-10-02T09:32:08.470Z</time>
      </trkpt>
      <trkpt lat="43.11563" lon="6.30101">
        <ele>16.3</ele>
        <time>2022-10-02T09:32:11.408Z</time>
      </trkpt>
      <trkpt lat="43.11551" lon="6.30092">
        <ele>15.4</ele>
        <time>2022-10-02T09:32:14.993Z</time>
      </trkpt>
      <trkpt lat="43.11543" lon="6.30082">
        <ele>15.1</ele>
        <time>2022-10-02T09:32:18.994Z</time>
      </trkpt>
      <trkpt lat="43.11535" lon="6.30074">
        <ele>14.9</ele>
        <time>2022-10-02T09:32:22.974Z</time>
      </trkpt>
      <trkpt lat="43.11524" lon="6.30065">
        <ele>14.4</ele>
        <time>2022-10-02T09:32:27.194Z</time>
      </trkpt>
      <trkpt lat="43.11513" lon="6.30056">
        <ele>13.4</ele>
        <time>2022-10-02T09:32:30.834Z</time>
      </trkpt>
      <trkpt lat="43.11503" lon="6.30048">
        <ele>12.6</ele>
        <time>2022-10-02T09:32:34.125Z</time>
      </trkpt>
      <trkpt lat="43.11493" lon="6.30041">
        <ele>12.3</ele>
        <time>2022-10-02T09:32:38.318Z</time>
      </trkpt>
      <trkpt lat="43.11483" lon="6.30034">
        <ele>12.2</ele>
        <time>2022-10-02T09:32:43.517Z</time>
      </trkpt>
      <trkpt lat="43.11472" lon="6.30026">
        <ele>12</ele>
        <time>2022-10-02T09:32:48.777Z</time>
      </trkpt>
      <trkpt lat="43.11462" lon="6.30015">
        <ele>11.4</ele>
        <time>2022-10-02T09:32:52.707Z</time>
      </trkpt>
      <trkpt lat="43.11454" lon="6.29998">
        <ele>11.4</ele>
        <time>2022-10-02T09:33:16.375Z</time>
      </trkpt>
      <trkpt lat="43.11448" lon="6.29985">
        <ele>11.7</ele>
        <time>2022-10-02T09:33:40.204Z</time>
      </trkpt>
      <trkpt lat="43.11444" lon="6.29969">
        <ele>12.1</ele>
        <time>2022-10-02T09:34:08.345Z</time>
      </trkpt>
      <trkpt lat="43.11441" lon="6.29953">
        <ele>12.5</ele>
        <time>2022-10-02T09:34:36.111Z</time>
      </trkpt>
      <trkpt lat="43.11441" lon="6.29937">
        <ele>12.7</ele>
        <time>2022-10-02T09:34:58.315Z</time>
      </trkpt>
      <trkpt lat="43.11437" lon="6.29925">
        <ele>12.2</ele>
        <time>2022-10-02T09:35:01.137Z</time>
      </trkpt>
      <trkpt lat="43.11428" lon="6.29912">
        <ele>11.2</ele>
        <time>2022-10-02T09:35:04.854Z</time>
      </trkpt>
      <trkpt lat="43.11421" lon="6.29901">
        <ele>10.4</ele>
        <time>2022-10-02T09:35:07.881Z</time>
      </trkpt>
      <trkpt lat="43.11412" lon="6.29894">
        <ele>9.8</ele>
        <time>2022-10-02T09:35:10.765Z</time>
      </trkpt>
      <trkpt lat="43.11404" lon="6.2989">
        <ele>9.5</ele>
        <time>2022-10-02T09:35:13.675Z</time>
      </trkpt>
      <trkpt lat="43.11404" lon="6.29886">
        <ele>9.6</ele>
        <time>2022-10-02T09:35:20.495Z</time>
      </trkpt>
      <trkpt lat="43.11396" lon="6.29875">
        <ele>9.4</ele>
        <time>2022-10-02T09:35:25.190Z</time>
      </trkpt>
      <trkpt lat="43.11386" lon="6.29868">
        <ele>8.9</ele>
        <time>2022-10-02T09:35:28.703Z</time>
      </trkpt>
      <trkpt lat="43.11376" lon="6.29862">
        <ele>8.5</ele>
        <time>2022-10-02T09:35:32.382Z</time>
      </trkpt>
      <trkpt lat="43.11367" lon="6.29854">
        <ele>8.5</ele>
        <time>2022-10-02T09:35:49.579Z</time>
      </trkpt>
      <trkpt lat="43.11359" lon="6.29847">
        <ele>8.4</ele>
        <time>2022-10-02T09:35:53.880Z</time>
      </trkpt>
      <trkpt lat="43.11351" lon="6.29841">
        <ele>8</ele>
        <time>2022-10-02T09:35:56.751Z</time>
      </trkpt>
      <trkpt lat="43.11342" lon="6.29832">
        <ele>7.6</ele>
        <time>2022-10-02T09:36:00.533Z</time>
      </trkpt>
      <trkpt lat="43.11334" lon="6.29824">
        <ele>7.1</ele>
        <time>2022-10-02T09:36:03.472Z</time>
      </trkpt>
      <trkpt lat="43.11324" lon="6.29817">
        <ele>6.7</ele>
        <time>2022-10-02T09:36:07.295Z</time>
      </trkpt>
      <trkpt lat="43.11315" lon="6.2981">
        <ele>6.3</ele>
        <time>2022-10-02T09:36:10.715Z</time>
      </trkpt>
      <trkpt lat="43.11306" lon="6.29803">
        <ele>6.1</ele>
        <time>2022-10-02T09:36:14.917Z</time>
      </trkpt>
      <trkpt lat="43.11298" lon="6.29796">
        <ele>6</ele>
        <time>2022-10-02T09:36:19.218Z</time>
      </trkpt>
      <trkpt lat="43.1129" lon="6.29788">
        <ele>5.7</ele>
        <time>2022-10-02T09:36:22.778Z</time>
      </trkpt>
      <trkpt lat="43.11281" lon="6.29779">
        <ele>5.2</ele>
        <time>2022-10-02T09:36:26.253Z</time>
      </trkpt>
      <trkpt lat="43.11272" lon="6.29772">
        <ele>5</ele>
        <time>2022-10-02T09:36:30.454Z</time>
      </trkpt>
      <trkpt lat="43.11265" lon="6.29766">
        <ele>5</ele>
        <time>2022-10-02T09:36:43.690Z</time>
      </trkpt>
      <trkpt lat="43.11256" lon="6.29758">
        <ele>4.9</ele>
        <time>2022-10-02T09:36:48.630Z</time>
      </trkpt>
      <trkpt lat="43.1125" lon="6.29751">
        <ele>5</ele>
        <time>2022-10-02T09:37:02.925Z</time>
      </trkpt>
      <trkpt lat="43.11242" lon="6.29746">
        <ele>5.1</ele>
        <time>2022-10-02T09:37:18.659Z</time>
      </trkpt>
      <trkpt lat="43.11235" lon="6.2974">
        <ele>5.4</ele>
        <time>2022-10-02T09:37:38.497Z</time>
      </trkpt>
      <trkpt lat="43.11228" lon="6.29732">
        <ele>5.7</ele>
        <time>2022-10-02T09:37:59.415Z</time>
      </trkpt>
      <trkpt lat="43.11221" lon="6.29723">
        <ele>6</ele>
        <time>2022-10-02T09:38:20.975Z</time>
      </trkpt>
      <trkpt lat="43.11212" lon="6.29714">
        <ele>6.6</ele>
        <time>2022-10-02T09:38:53.014Z</time>
      </trkpt>
      <trkpt lat="43.11201" lon="6.29704">
        <ele>7.3</ele>
        <time>2022-10-02T09:39:30.764Z</time>
      </trkpt>
      <trkpt lat="43.11191" lon="6.29694">
        <ele>7.9</ele>
        <time>2022-10-02T09:40:05.120Z</time>
      </trkpt>
      <trkpt lat="43.11183" lon="6.29689">
        <ele>7.9</ele>
        <time>2022-10-02T09:40:19.215Z</time>
      </trkpt>
      <trkpt lat="43.11173" lon="6.2968">
        <ele>8.1</ele>
        <time>2022-10-02T09:40:41.862Z</time>
      </trkpt>
      <trkpt lat="43.11161" lon="6.29677">
        <ele>8.3</ele>
        <time>2022-10-02T09:41:04.870Z</time>
      </trkpt>
      <trkpt lat="43.11151" lon="6.2967">
        <ele>8.8</ele>
        <time>2022-10-02T09:41:35.256Z</time>
      </trkpt>
      <trkpt lat="43.1114" lon="6.29665">
        <ele>9.1</ele>
        <time>2022-10-02T09:41:59.607Z</time>
      </trkpt>
      <trkpt lat="43.1113" lon="6.29667">
        <ele>8.9</ele>
        <time>2022-10-02T09:42:03.687Z</time>
      </trkpt>
      <trkpt lat="43.1112" lon="6.29674">
        <ele>8.3</ele>
        <time>2022-10-02T09:42:06.937Z</time>
      </trkpt>
      <trkpt lat="43.11111" lon="6.29683">
        <ele>7.2</ele>
        <time>2022-10-02T09:42:10.103Z</time>
      </trkpt>
      <trkpt lat="43.11104" lon="6.2969">
        <ele>6.4</ele>
        <time>2022-10-02T09:42:12.566Z</time>
      </trkpt>
      <trkpt lat="43.11092" lon="6.29682">
        <ele>6.7</ele>
        <time>2022-10-02T09:42:39.505Z</time>
      </trkpt>
      <trkpt lat="43.1108" lon="6.29679">
        <ele>6.4</ele>
        <time>2022-10-02T09:42:44.167Z</time>
      </trkpt>
      <trkpt lat="43.11071" lon="6.29682">
        <ele>5.8</ele>
        <time>2022-10-02T09:42:46.613Z</time>
      </trkpt>
      <trkpt lat="43.11061" lon="6.29673">
        <ele>5.4</ele>
        <time>2022-10-02T09:42:50.776Z</time>
      </trkpt>
      <trkpt lat="43.11052" lon="6.29675">
        <ele>5</ele>
        <time>2022-10-02T09:42:53.645Z</time>
      </trkpt>
      <trkpt lat="43.11047" lon="6.29675">
        <ele>5</ele>
        <time>2022-10-02T09:43:01.660Z</time>
      </trkpt>
      <trkpt lat="43.11044" lon="6.29689">
        <ele>5</ele>
        <time>2022-10-02T09:43:18.734Z</time>
      </trkpt>
      <trkpt lat="43.11042" lon="6.29701">
        <ele>4.4</ele>
        <time>2022-10-02T09:43:21.287Z</time>
      </trkpt>
      <trkpt lat="43.11037" lon="6.29715">
        <ele>2.7</ele>
        <time>2022-10-02T09:43:24.520Z</time>
      </trkpt>
      <trkpt lat="43.11032" lon="6.29729">
        <ele>1.5</ele>
        <time>2022-10-02T09:43:27.753Z</time>
      </trkpt>
      <trkpt lat="43.11027" lon="6.29741">
        <ele>1</ele>
        <time>2022-10-02T09:43:30.770Z</time>
      </trkpt>
      <trkpt lat="43.11022" lon="6.29752">
        <ele>1.2</ele>
        <time>2022-10-02T09:43:49.575Z</time>
      </trkpt>
      <trkpt lat="43.11016" lon="6.29764">
        <ele>2.5</ele>
        <time>2022-10-02T09:44:46.217Z</time>
      </trkpt>
      <trkpt lat="43.11012" lon="6.29777">
        <ele>3.9</ele>
        <time>2022-10-02T09:45:49.894Z</time>
      </trkpt>
      <trkpt lat="43.11007" lon="6.29789">
        <ele>3</ele>
        <time>2022-10-02T09:45:52.760Z</time>
      </trkpt>
      <trkpt lat="43.11001" lon="6.298">
        <ele>1.7</ele>
        <time>2022-10-02T09:45:55.608Z</time>
      </trkpt>
      <trkpt lat="43.10995" lon="6.29814">
        <ele>1.6</ele>
        <time>2022-10-02T09:46:01.131Z</time>
      </trkpt>
      <trkpt lat="43.1099" lon="6.29824">
        <ele>2.3</ele>
        <time>2022-10-02T09:46:31.776Z</time>
      </trkpt>
      <trkpt lat="43.10982" lon="6.29834">
        <ele>3</ele>
        <time>2022-10-02T09:47:05.351Z</time>
      </trkpt>
      <trkpt lat="43.10975" lon="6.29842">
        <ele>2.7</ele>
        <time>2022-10-02T09:47:08.540Z</time>
      </trkpt>
      <trkpt lat="43.10968" lon="6.29851">
        <ele>2</ele>
        <time>2022-10-02T09:47:11.268Z</time>
      </trkpt>
      <trkpt lat="43.10961" lon="6.2986">
        <ele>2</ele>
        <time>2022-10-02T09:47:26.657Z</time>
      </trkpt>
      <trkpt lat="43.10954" lon="6.29868">
        <ele>1.9</ele>
        <time>2022-10-02T09:47:30.764Z</time>
      </trkpt>
      <trkpt lat="43.10947" lon="6.29876">
        <ele>1.6</ele>
        <time>2022-10-02T09:47:33.953Z</time>
      </trkpt>
      <trkpt lat="43.1094" lon="6.29884">
        <ele>1</ele>
        <time>2022-10-02T09:47:36.341Z</time>
      </trkpt>
      <trkpt lat="43.10932" lon="6.29895">
        <ele>1.5</ele>
        <time>2022-10-02T09:48:06.829Z</time>
      </trkpt>
      <trkpt lat="43.10923" lon="6.29902">
        <ele>1.7</ele>
        <time>2022-10-02T09:48:26.987Z</time>
      </trkpt>
      <trkpt lat="43.10915" lon="6.29911">
        <ele>2</ele>
        <time>2022-10-02T09:48:49.578Z</time>
      </trkpt>
      <trkpt lat="43.10907" lon="6.29919">
        <ele>2</ele>
        <time>2022-10-02T09:49:05.455Z</time>
      </trkpt>
      <trkpt lat="43.10899" lon="6.29928">
        <ele>1.9</ele>
        <time>2022-10-02T09:49:10.200Z</time>
      </trkpt>
      <trkpt lat="43.10889" lon="6.29936">
        <ele>1.3</ele>
        <time>2022-10-02T09:49:13.597Z</time>
      </trkpt>
      <trkpt lat="43.10882" lon="6.29938">
        <ele>1</ele>
        <time>2022-10-02T09:49:15.888Z</time>
      </trkpt>
      <trkpt lat="43.10879" lon="6.2994">
        <ele>1</ele>
        <time>2022-10-02T09:49:21.236Z</time>
      </trkpt>
      <trkpt lat="43.1088" lon="6.29948">
        <ele>1.2</ele>
        <time>2022-10-02T09:49:34.984Z</time>
      </trkpt>
      <trkpt lat="43.10869" lon="6.29951">
        <ele>1.6</ele>
        <time>2022-10-02T09:50:01.685Z</time>
      </trkpt>
      <trkpt lat="43.10858" lon="6.29952">
        <ele>2.1</ele>
        <time>2022-10-02T09:50:31.671Z</time>
      </trkpt>
      <trkpt lat="43.10848" lon="6.2995">
        <ele>2.7</ele>
        <time>2022-10-02T09:51:01.849Z</time>
      </trkpt>
      <trkpt lat="43.10839" lon="6.29947">
        <ele>2.9</ele>
        <time>2022-10-02T09:51:20.357Z</time>
      </trkpt>
      <trkpt lat="43.1083" lon="6.29944">
        <ele>3.37</ele>
        <time>2022-10-02T09:51:46.446Z</time>
      </trkpt>
      <trkpt lat="43.10821" lon="6.29943">
        <ele>4.32</ele>
        <time>2022-10-02T09:52:26.098Z</time>
      </trkpt>
      <trkpt lat="43.10812" lon="6.29947">
        <ele>5.7</ele>
        <time>2022-10-02T09:53:24.598Z</time>
      </trkpt>
      <trkpt lat="43.10802" lon="6.29941">
        <ele>5.5</ele>
        <time>2022-10-02T09:53:29.084Z</time>
      </trkpt>
      <trkpt lat="43.10792" lon="6.29942">
        <ele>5.6</ele>
        <time>2022-10-02T09:53:46.772Z</time>
      </trkpt>
      <trkpt lat="43.10781" lon="6.29942">
        <ele>5.6</ele>
        <time>2022-10-02T09:54:04.404Z</time>
      </trkpt>
      <trkpt lat="43.10772" lon="6.29942">
        <ele>5.4</ele>
        <time>2022-10-02T09:54:07.937Z</time>
      </trkpt>
      <trkpt lat="43.10763" lon="6.29939">
        <ele>4.6</ele>
        <time>2022-10-02T09:54:10.569Z</time>
      </trkpt>
      <trkpt lat="43.10748" lon="6.29938">
        <ele>4</ele>
        <time>2022-10-02T09:54:15.471Z</time>
      </trkpt>
      <trkpt lat="43.10739" lon="6.29932">
        <ele>3</ele>
        <time>2022-10-02T09:54:18.315Z</time>
      </trkpt>
      <trkpt lat="43.10729" lon="6.29926">
        <ele>2.1</ele>
        <time>2022-10-02T09:54:21.417Z</time>
      </trkpt>
      <trkpt lat="43.10718" lon="6.29922">
        <ele>2.3</ele>
        <time>2022-10-02T09:54:43.160Z</time>
      </trkpt>
      <trkpt lat="43.10717" lon="6.29906">
        <ele>2.2</ele>
        <time>2022-10-02T09:54:48.616Z</time>
      </trkpt>
      <trkpt lat="43.10714" lon="6.29891">
        <ele>3.4</ele>
        <time>2022-10-02T09:55:38.722Z</time>
      </trkpt>
      <trkpt lat="43.10711" lon="6.2988">
        <ele>4.9</ele>
        <time>2022-10-02T09:56:31.726Z</time>
      </trkpt>
      <trkpt lat="43.10714" lon="6.29865">
        <ele>4.9</ele>
        <time>2022-10-02T09:56:49.927Z</time>
      </trkpt>
      <trkpt lat="43.10714" lon="6.29851">
        <ele>5.8</ele>
        <time>2022-10-02T09:57:28.090Z</time>
      </trkpt>
      <trkpt lat="43.10709" lon="6.29842">
        <ele>8.6</ele>
        <time>2022-10-02T09:58:19.139Z</time>
      </trkpt>
      <trkpt lat="43.10709" lon="6.2983">
        <ele>8.9</ele>
        <time>2022-10-02T09:58:39.600Z</time>
      </trkpt>
      <trkpt lat="43.10709" lon="6.29818">
        <ele>8.2</ele>
        <time>2022-10-02T09:58:42.089Z</time>
      </trkpt>
      <trkpt lat="43.10704" lon="6.2981">
        <ele>9.5</ele>
        <time>2022-10-02T09:59:29.625Z</time>
      </trkpt>
      <trkpt lat="43.10701" lon="6.29798">
        <ele>10.59</ele>
        <time>2022-10-02T10:00:16.275Z</time>
      </trkpt>
      <trkpt lat="43.10697" lon="6.29805">
        <ele>11.97</ele>
        <time>2022-10-02T10:00:56.400Z</time>
      </trkpt>
      <trkpt lat="43.10688" lon="6.2981">
        <ele>12.4</ele>
        <time>2022-10-02T10:01:22.589Z</time>
      </trkpt>
      <trkpt lat="43.10678" lon="6.29813">
        <ele>11</ele>
        <time>2022-10-02T10:01:25.497Z</time>
      </trkpt>
      <trkpt lat="43.10674" lon="6.29814">
        <ele>10.7</ele>
        <time>2022-10-02T10:01:26.653Z</time>
      </trkpt>
      <trkpt lat="43.1067" lon="6.29822">
        <ele>12.1</ele>
        <time>2022-10-02T10:02:10.421Z</time>
      </trkpt>
      <trkpt lat="43.1067" lon="6.29818">
        <ele>11</ele>
        <time>2022-10-02T10:02:11.251Z</time>
      </trkpt>
      <trkpt lat="43.10674" lon="6.29823">
        <ele>12.8</ele>
        <time>2022-10-02T10:02:44.732Z</time>
      </trkpt>
      <trkpt lat="43.10675" lon="6.29838">
        <ele>14.5</ele>
        <time>2022-10-02T10:03:52.722Z</time>
      </trkpt>
      <trkpt lat="43.10675" lon="6.29853">
        <ele>11.7</ele>
        <time>2022-10-02T10:03:55.834Z</time>
      </trkpt>
      <trkpt lat="43.10674" lon="6.2987">
        <ele>10.6</ele>
        <time>2022-10-02T10:03:59.372Z</time>
      </trkpt>
      <trkpt lat="43.10669" lon="6.29882">
        <ele>11.8</ele>
        <time>2022-10-02T10:04:50.950Z</time>
      </trkpt>
      <trkpt lat="43.10659" lon="6.29889">
        <ele>9.8</ele>
        <time>2022-10-02T10:04:54.141Z</time>
      </trkpt>
      <trkpt lat="43.10652" lon="6.29898">
        <ele>7.9</ele>
        <time>2022-10-02T10:04:56.869Z</time>
      </trkpt>
      <trkpt lat="43.10646" lon="6.29901">
        <ele>6.5</ele>
        <time>2022-10-02T10:04:58.684Z</time>
      </trkpt>
      <trkpt lat="43.10641" lon="6.29907">
        <ele>6.3</ele>
        <time>2022-10-02T10:05:01.078Z</time>
      </trkpt>
      <trkpt lat="43.10635" lon="6.29921">
        <ele>7.4</ele>
        <time>2022-10-02T10:05:47.248Z</time>
      </trkpt>
      <trkpt lat="43.10634" lon="6.2993">
        <ele>6.1</ele>
        <time>2022-10-02T10:05:49.137Z</time>
      </trkpt>
      <trkpt lat="43.10635" lon="6.29943">
        <ele>4.2</ele>
        <time>2022-10-02T10:05:51.849Z</time>
      </trkpt>
      <trkpt lat="43.10639" lon="6.29952">
        <ele>3.2</ele>
        <time>2022-10-02T10:05:54.035Z</time>
      </trkpt>
      <trkpt lat="43.1064" lon="6.29962">
        <ele>2.2</ele>
        <time>2022-10-02T10:05:56.128Z</time>
      </trkpt>
      <trkpt lat="43.10643" lon="6.29973">
        <ele>1.6</ele>
        <time>2022-10-02T10:05:58.564Z</time>
      </trkpt>
      <trkpt lat="43.10642" lon="6.29985">
        <ele>1.4</ele>
        <time>2022-10-02T10:06:02.008Z</time>
      </trkpt>
      <trkpt lat="43.1064" lon="6.29999">
        <ele>1.2</ele>
        <time>2022-10-02T10:06:06.242Z</time>
      </trkpt>
      <trkpt lat="43.1064" lon="6.30006">
        <ele>1.3</ele>
        <time>2022-10-02T10:06:16.223Z</time>
      </trkpt>
      <trkpt lat="43.10642" lon="6.30021">
        <ele>2</ele>
        <time>2022-10-02T10:06:50.301Z</time>
      </trkpt>
      <trkpt lat="43.10648" lon="6.30031">
        <ele>2.5</ele>
        <time>2022-10-02T10:07:17.302Z</time>
      </trkpt>
      <trkpt lat="43.10654" lon="6.30042">
        <ele>2</ele>
        <time>2022-10-02T10:07:20.292Z</time>
      </trkpt>
      <trkpt lat="43.10661" lon="6.30051">
        <ele>1.4</ele>
        <time>2022-10-02T10:07:22.873Z</time>
      </trkpt>
      <trkpt lat="43.10667" lon="6.3006">
        <ele>1.1</ele>
        <time>2022-10-02T10:07:25.960Z</time>
      </trkpt>
      <trkpt lat="43.10675" lon="6.30067">
        <ele>2.7</ele>
        <time>2022-10-02T10:08:24.653Z</time>
      </trkpt>
      <trkpt lat="43.10681" lon="6.3007">
        <ele>3.9</ele>
        <time>2022-10-02T10:09:04.144Z</time>
      </trkpt>
      <trkpt lat="43.10685" lon="6.30076">
        <ele>4.5</ele>
        <time>2022-10-02T10:09:29.151Z</time>
      </trkpt>
      <trkpt lat="43.10691" lon="6.3009">
        <ele>5.5</ele>
        <time>2022-10-02T10:10:12.026Z</time>
      </trkpt>
      <trkpt lat="43.10692" lon="6.30103">
        <ele>5.9</ele>
        <time>2022-10-02T10:10:36.857Z</time>
      </trkpt>
      <trkpt lat="43.10693" lon="6.3011">
        <ele>6</ele>
        <time>2022-10-02T10:10:46.986Z</time>
      </trkpt>
      <trkpt lat="43.10691" lon="6.30126">
        <ele>5.5</ele>
        <time>2022-10-02T10:10:50.773Z</time>
      </trkpt>
      <trkpt lat="43.10691" lon="6.30142">
        <ele>5</ele>
        <time>2022-10-02T10:10:54.485Z</time>
      </trkpt>
      <trkpt lat="43.10695" lon="6.3015">
        <ele>4.2</ele>
        <time>2022-10-02T10:10:56.497Z</time>
      </trkpt>
      <trkpt lat="43.10697" lon="6.30149">
        <ele>4.6</ele>
        <time>2022-10-02T10:11:09.661Z</time>
      </trkpt>
      <trkpt lat="43.10704" lon="6.30155">
        <ele>4.5</ele>
        <time>2022-10-02T10:11:13.326Z</time>
      </trkpt>
      <trkpt lat="43.1071" lon="6.30165">
        <ele>3.3</ele>
        <time>2022-10-02T10:11:16.011Z</time>
      </trkpt>
      <trkpt lat="43.1072" lon="6.30171">
        <ele>2.7</ele>
        <time>2022-10-02T10:11:19.129Z</time>
      </trkpt>
      <trkpt lat="43.10732" lon="6.30171">
        <ele>3.3</ele>
        <time>2022-10-02T10:11:52.763Z</time>
      </trkpt>
      <trkpt lat="43.10747" lon="6.30182">
        <ele>2.8</ele>
        <time>2022-10-02T10:11:58.937Z</time>
      </trkpt>
      <trkpt lat="43.10767" lon="6.30193">
        <ele>3</ele>
        <time>2022-10-02T10:12:36.692Z</time>
      </trkpt>
      <trkpt lat="43.10776" lon="6.30205">
        <ele>3.1</ele>
        <time>2022-10-02T10:12:58.409Z</time>
      </trkpt>
      <trkpt lat="43.10783" lon="6.30216">
        <ele>2.8</ele>
        <time>2022-10-02T10:13:02.325Z</time>
      </trkpt>
      <trkpt lat="43.10789" lon="6.30228">
        <ele>2.8</ele>
        <time>2022-10-02T10:13:19.346Z</time>
      </trkpt>
      <trkpt lat="43.10793" lon="6.30242">
        <ele>3.2</ele>
        <time>2022-10-02T10:13:45.755Z</time>
      </trkpt>
      <trkpt lat="43.10795" lon="6.30257">
        <ele>3.3</ele>
        <time>2022-10-02T10:14:05.199Z</time>
      </trkpt>
      <trkpt lat="43.10798" lon="6.30273">
        <ele>3.2</ele>
        <time>2022-10-02T10:14:10.830Z</time>
      </trkpt>
      <trkpt lat="43.10801" lon="6.3029">
        <ele>3.4</ele>
        <time>2022-10-02T10:14:34.725Z</time>
      </trkpt>
      <trkpt lat="43.108" lon="6.30305">
        <ele>4</ele>
        <time>2022-10-02T10:15:06.496Z</time>
      </trkpt>
      <trkpt lat="43.108" lon="6.30322">
        <ele>4.6</ele>
        <time>2022-10-02T10:15:40.909Z</time>
      </trkpt>
      <trkpt lat="43.10804" lon="6.3033">
        <ele>4.9</ele>
        <time>2022-10-02T10:15:59.456Z</time>
      </trkpt>
      <trkpt lat="43.10803" lon="6.30344">
        <ele>3.4</ele>
        <time>2022-10-02T10:16:02.374Z</time>
      </trkpt>
      <trkpt lat="43.10802" lon="6.30358">
        <ele>1.5</ele>
        <time>2022-10-02T10:16:05.292Z</time>
      </trkpt>
      <trkpt lat="43.10801" lon="6.3037">
        <ele>1.7</ele>
        <time>2022-10-02T10:16:23.133Z</time>
      </trkpt>
      <trkpt lat="43.10799" lon="6.30386">
        <ele>2.8</ele>
        <time>2022-10-02T10:17:09.302Z</time>
      </trkpt>
      <trkpt lat="43.108" lon="6.30401">
        <ele>2.1</ele>
        <time>2022-10-02T10:17:12.231Z</time>
      </trkpt>
      <trkpt lat="43.10801" lon="6.30414">
        <ele>1.2</ele>
        <time>2022-10-02T10:17:14.943Z</time>
      </trkpt>
      <trkpt lat="43.10806" lon="6.30428">
        <ele>1</ele>
        <time>2022-10-02T10:17:19.660Z</time>
      </trkpt>
      <trkpt lat="43.10809" lon="6.30445">
        <ele>1.8</ele>
        <time>2022-10-02T10:17:58.683Z</time>
      </trkpt>
      <trkpt lat="43.10808" lon="6.30461">
        <ele>1.5</ele>
        <time>2022-10-02T10:18:03.115Z</time>
      </trkpt>
      <trkpt lat="43.10806" lon="6.30474">
        <ele>1</ele>
        <time>2022-10-02T10:18:05.966Z</time>
      </trkpt>
      <trkpt lat="43.10803" lon="6.30485">
        <ele>1</ele>
        <time>2022-10-02T10:18:19.708Z</time>
      </trkpt>
      <trkpt lat="43.10803" lon="6.30502">
        <ele>1</ele>
        <time>2022-10-02T10:18:39.602Z</time>
      </trkpt>
      <trkpt lat="43.10803" lon="6.30516">
        <ele>1</ele>
        <time>2022-10-02T10:18:55.986Z</time>
      </trkpt>
      <trkpt lat="43.10804" lon="6.30531">
        <ele>1</ele>
        <time>2022-10-02T10:19:13.612Z</time>
      </trkpt>
      <trkpt lat="43.10809" lon="6.30549">
        <ele>2.6</ele>
        <time>2022-10-02T10:20:21.324Z</time>
      </trkpt>
      <trkpt lat="43.10811" lon="6.30565">
        <ele>3.3</ele>
        <time>2022-10-02T10:20:56.638Z</time>
      </trkpt>
      <trkpt lat="43.10811" lon="6.3058">
        <ele>3.9</ele>
        <time>2022-10-02T10:21:28.326Z</time>
      </trkpt>
      <trkpt lat="43.10815" lon="6.30583">
        <ele>4</ele>
        <time>2022-10-02T10:21:37.474Z</time>
      </trkpt>
      <trkpt lat="43.10818" lon="6.30599">
        <ele>4</ele>
        <time>2022-10-02T10:21:56.805Z</time>
      </trkpt>
      <trkpt lat="43.10822" lon="6.30614">
        <ele>3.8</ele>
        <time>2022-10-02T10:22:01.663Z</time>
      </trkpt>
      <trkpt lat="43.10827" lon="6.3063">
        <ele>2.6</ele>
        <time>2022-10-02T10:22:05.273Z</time>
      </trkpt>
      <trkpt lat="43.10832" lon="6.30643">
        <ele>1.8</ele>
        <time>2022-10-02T10:22:08.322Z</time>
      </trkpt>
      <trkpt lat="43.10838" lon="6.30657">
        <ele>1.8</ele>
        <time>2022-10-02T10:22:27.319Z</time>
      </trkpt>
      <trkpt lat="43.10841" lon="6.30673">
        <ele>1.8</ele>
        <time>2022-10-02T10:22:46.651Z</time>
      </trkpt>
      <trkpt lat="43.10844" lon="6.30688">
        <ele>1.8</ele>
        <time>2022-10-02T10:23:04.851Z</time>
      </trkpt>
      <trkpt lat="43.10846" lon="6.30706">
        <ele>1.9</ele>
        <time>2022-10-02T10:23:27.735Z</time>
      </trkpt>
      <trkpt lat="43.10847" lon="6.30721">
        <ele>2</ele>
        <time>2022-10-02T10:23:46.963Z</time>
      </trkpt>
      <trkpt lat="43.10849" lon="6.30735">
        <ele>1.5</ele>
        <time>2022-10-02T10:23:50.121Z</time>
      </trkpt>
      <trkpt lat="43.10852" lon="6.30748">
        <ele>1.1</ele>
        <time>2022-10-02T10:23:53.362Z</time>
      </trkpt>
      <trkpt lat="43.10853" lon="6.30761">
        <ele>1</ele>
        <time>2022-10-02T10:23:57.689Z</time>
      </trkpt>
      <trkpt lat="43.10854" lon="6.30774">
        <ele>1</ele>
        <time>2022-10-02T10:24:12.987Z</time>
      </trkpt>
      <trkpt lat="43.10855" lon="6.30788">
        <ele>1.4</ele>
        <time>2022-10-02T10:24:38.579Z</time>
      </trkpt>
      <trkpt lat="43.10853" lon="6.30801">
        <ele>1.8</ele>
        <time>2022-10-02T10:25:03.564Z</time>
      </trkpt>
      <trkpt lat="43.10853" lon="6.30815">
        <ele>1.7</ele>
        <time>2022-10-02T10:25:08.241Z</time>
      </trkpt>
      <trkpt lat="43.10854" lon="6.30826">
        <ele>1.3</ele>
        <time>2022-10-02T10:25:10.665Z</time>
      </trkpt>
      <trkpt lat="43.10853" lon="6.3084">
        <ele>1.2</ele>
        <time>2022-10-02T10:25:15.367Z</time>
      </trkpt>
      <trkpt lat="43.10854" lon="6.30853">
        <ele>1.7</ele>
        <time>2022-10-02T10:25:42.541Z</time>
      </trkpt>
      <trkpt lat="43.10856" lon="6.30866">
        <ele>2</ele>
        <time>2022-10-02T10:26:04.234Z</time>
      </trkpt>
      <trkpt lat="43.10856" lon="6.3088">
        <ele>2</ele>
        <time>2022-10-02T10:26:20.618Z</time>
      </trkpt>
      <trkpt lat="43.10854" lon="6.30894">
        <ele>2</ele>
        <time>2022-10-02T10:26:37.312Z</time>
      </trkpt>
      <trkpt lat="43.10853" lon="6.3091">
        <ele>2</ele>
        <time>2022-10-02T10:26:56.104Z</time>
      </trkpt>
      <trkpt lat="43.10848" lon="6.30924">
        <ele>2</ele>
        <time>2022-10-02T10:27:14.343Z</time>
      </trkpt>
      <trkpt lat="43.10844" lon="6.30937">
        <ele>2</ele>
        <time>2022-10-02T10:27:30.852Z</time>
      </trkpt>
      <trkpt lat="43.10844" lon="6.30945">
        <ele>2</ele>
        <time>2022-10-02T10:27:40.214Z</time>
      </trkpt>
      <trkpt lat="43.10846" lon="6.30946">
        <ele>2</ele>
        <time>2022-10-02T10:27:43.626Z</time>
      </trkpt>
      <trkpt lat="43.10842" lon="6.30958">
        <ele>1.8</ele>
        <time>2022-10-02T10:27:47.471Z</time>
      </trkpt>
      <trkpt lat="43.1084" lon="6.30972">
        <ele>1.5</ele>
        <time>2022-10-02T10:27:51.273Z</time>
      </trkpt>
      <trkpt lat="43.10842" lon="6.30987">
        <ele>1.6</ele>
        <time>2022-10-02T10:28:10.717Z</time>
      </trkpt>
      <trkpt lat="43.1084" lon="6.31">
        <ele>1.5</ele>
        <time>2022-10-02T10:28:15.124Z</time>
      </trkpt>
      <trkpt lat="43.1084" lon="6.31013">
        <ele>1.5</ele>
        <time>2022-10-02T10:28:30.337Z</time>
      </trkpt>
      <trkpt lat="43.10838" lon="6.31026">
        <ele>1.4</ele>
        <time>2022-10-02T10:28:34.745Z</time>
      </trkpt>
      <trkpt lat="43.10833" lon="6.31039">
        <ele>1</ele>
        <time>2022-10-02T10:28:38.337Z</time>
      </trkpt>
      <trkpt lat="43.10831" lon="6.31052">
        <ele>1</ele>
        <time>2022-10-02T10:28:53.884Z</time>
      </trkpt>
      <trkpt lat="43.10828" lon="6.31068">
        <ele>1.4</ele>
        <time>2022-10-02T10:29:21.652Z</time>
      </trkpt>
      <trkpt lat="43.10827" lon="6.31079">
        <ele>1.8</ele>
        <time>2022-10-02T10:29:44.249Z</time>
      </trkpt>
      <trkpt lat="43.10826" lon="6.31092">
        <ele>2</ele>
        <time>2022-10-02T10:30:03.181Z</time>
      </trkpt>
      <trkpt lat="43.10826" lon="6.31104">
        <ele>2</ele>
        <time>2022-10-02T10:30:17.224Z</time>
      </trkpt>
      <trkpt lat="43.10824" lon="6.31118">
        <ele>2</ele>
        <time>2022-10-02T10:30:33.918Z</time>
      </trkpt>
      <trkpt lat="43.10823" lon="6.31133">
        <ele>2</ele>
        <time>2022-10-02T10:30:51.545Z</time>
      </trkpt>
      <trkpt lat="43.10821" lon="6.31145">
        <ele>1.9</ele>
        <time>2022-10-02T10:30:55.584Z</time>
      </trkpt>
      <trkpt lat="43.10813" lon="6.31157">
        <ele>1.5</ele>
        <time>2022-10-02T10:30:59.700Z</time>
      </trkpt>
      <trkpt lat="43.10813" lon="6.31169">
        <ele>1.3</ele>
        <time>2022-10-02T10:31:03.116Z</time>
      </trkpt>
      <trkpt lat="43.10811" lon="6.31182">
        <ele>1.2</ele>
        <time>2022-10-02T10:31:07.523Z</time>
      </trkpt>
      <trkpt lat="43.10808" lon="6.31196">
        <ele>1.1</ele>
        <time>2022-10-02T10:31:12.423Z</time>
      </trkpt>
      <trkpt lat="43.10806" lon="6.31209">
        <ele>1</ele>
        <time>2022-10-02T10:31:16.831Z</time>
      </trkpt>
      <trkpt lat="43.10802" lon="6.31222">
        <ele>1</ele>
        <time>2022-10-02T10:31:33.340Z</time>
      </trkpt>
      <trkpt lat="43.10797" lon="6.31233">
        <ele>1</ele>
        <time>2022-10-02T10:31:48.504Z</time>
      </trkpt>
      <trkpt lat="43.10793" lon="6.31243">
        <ele>1</ele>
        <time>2022-10-02T10:32:01.848Z</time>
      </trkpt>
      <trkpt lat="43.10789" lon="6.31255">
        <ele>1.1</ele>
        <time>2022-10-02T10:32:18.908Z</time>
      </trkpt>
      <trkpt lat="43.10786" lon="6.31271">
        <ele>1.2</ele>
        <time>2022-10-02T10:32:39.828Z</time>
      </trkpt>
      <trkpt lat="43.10783" lon="6.31283">
        <ele>1.2</ele>
        <time>2022-10-02T10:32:54.672Z</time>
      </trkpt>
      <trkpt lat="43.10781" lon="6.31295">
        <ele>1.2</ele>
        <time>2022-10-02T10:33:09.076Z</time>
      </trkpt>
      <trkpt lat="43.10776" lon="6.31306">
        <ele>1</ele>
        <time>2022-10-02T10:33:12.836Z</time>
      </trkpt>
      <trkpt lat="43.10773" lon="6.31317">
        <ele>1</ele>
        <time>2022-10-02T10:33:26.578Z</time>
      </trkpt>
      <trkpt lat="43.10768" lon="6.31328">
        <ele>1</ele>
        <time>2022-10-02T10:33:41.742Z</time>
      </trkpt>
      <trkpt lat="43.10765" lon="6.31341">
        <ele>2.3</ele>
        <time>2022-10-02T10:34:40.865Z</time>
      </trkpt>
      <trkpt lat="43.10764" lon="6.31354">
        <ele>4.7</ele>
        <time>2022-10-02T10:35:39.870Z</time>
      </trkpt>
      <trkpt lat="43.1076" lon="6.31351">
        <ele>4.1</ele>
        <time>2022-10-02T10:35:41.166Z</time>
      </trkpt>
      <trkpt lat="43.10755" lon="6.3135">
        <ele>3.9</ele>
        <time>2022-10-02T10:35:42.821Z</time>
      </trkpt>
      <trkpt lat="43.10756" lon="6.31351">
        <ele>4.2</ele>
        <time>2022-10-02T10:35:50.476Z</time>
      </trkpt>
      <trkpt lat="43.10753" lon="6.31352">
        <ele>4.3</ele>
        <time>2022-10-02T10:35:57.513Z</time>
      </trkpt>
      <trkpt lat="43.10745" lon="6.31356">
        <ele>5.02</ele>
        <time>2022-10-02T10:36:28.365Z</time>
      </trkpt>
      <trkpt lat="43.10734" lon="6.31351">
        <ele>3.2</ele>
        <time>2022-10-02T10:36:31.658Z</time>
      </trkpt>
      <trkpt lat="43.10726" lon="6.31356">
        <ele>1.73</ele>
        <time>2022-10-02T10:36:34.157Z</time>
      </trkpt>
      <trkpt lat="43.10723" lon="6.31367">
        <ele>1.9</ele>
        <time>2022-10-02T10:36:50.949Z</time>
      </trkpt>
      <trkpt lat="43.1072" lon="6.3138">
        <ele>3.1</ele>
        <time>2022-10-02T10:37:42.834Z</time>
      </trkpt>
      <trkpt lat="43.10721" lon="6.31393">
        <ele>4</ele>
        <time>2022-10-02T10:38:20.524Z</time>
      </trkpt>
      <trkpt lat="43.10729" lon="6.31404">
        <ele>7.4</ele>
        <time>2022-10-02T10:39:30.608Z</time>
      </trkpt>
      <trkpt lat="43.10731" lon="6.31418">
        <ele>8.7</ele>
        <time>2022-10-02T10:40:27.873Z</time>
      </trkpt>
      <trkpt lat="43.10734" lon="6.31432">
        <ele>5.8</ele>
        <time>2022-10-02T10:40:30.899Z</time>
      </trkpt>
      <trkpt lat="43.10729" lon="6.3145">
        <ele>2.1</ele>
        <time>2022-10-02T10:40:34.895Z</time>
      </trkpt>
      <trkpt lat="43.10732" lon="6.31466">
        <ele>2</ele>
        <time>2022-10-02T10:40:40.525Z</time>
      </trkpt>
      <trkpt lat="43.10734" lon="6.31482">
        <ele>1.8</ele>
        <time>2022-10-02T10:40:45.480Z</time>
      </trkpt>
      <trkpt lat="43.10731" lon="6.31496">
        <ele>1.6</ele>
        <time>2022-10-02T10:40:49.833Z</time>
      </trkpt>
      <trkpt lat="43.10729" lon="6.31509">
        <ele>1.7</ele>
        <time>2022-10-02T10:41:07.002Z</time>
      </trkpt>
      <trkpt lat="43.10721" lon="6.31521">
        <ele>1.8</ele>
        <time>2022-10-02T10:41:27.610Z</time>
      </trkpt>
      <trkpt lat="43.10715" lon="6.3153">
        <ele>2</ele>
        <time>2022-10-02T10:41:45.571Z</time>
      </trkpt>
      <trkpt lat="43.10709" lon="6.3154">
        <ele>1.8</ele>
        <time>2022-10-02T10:41:49.326Z</time>
      </trkpt>
      <trkpt lat="43.10704" lon="6.31556">
        <ele>1.3</ele>
        <time>2022-10-02T10:41:53.497Z</time>
      </trkpt>
      <trkpt lat="43.10697" lon="6.31566">
        <ele>1.1</ele>
        <time>2022-10-02T10:41:57.582Z</time>
      </trkpt>
      <trkpt lat="43.10692" lon="6.31576">
        <ele>1</ele>
        <time>2022-10-02T10:42:01.551Z</time>
      </trkpt>
      <trkpt lat="43.10686" lon="6.31588">
        <ele>1.1</ele>
        <time>2022-10-02T10:42:20.178Z</time>
      </trkpt>
      <trkpt lat="43.10681" lon="6.31599">
        <ele>1.3</ele>
        <time>2022-10-02T10:42:38.984Z</time>
      </trkpt>
      <trkpt lat="43.10675" lon="6.3161">
        <ele>1.3</ele>
        <time>2022-10-02T10:42:55.053Z</time>
      </trkpt>
      <trkpt lat="43.1067" lon="6.31622">
        <ele>1.1</ele>
        <time>2022-10-02T10:42:59.124Z</time>
      </trkpt>
      <trkpt lat="43.10664" lon="6.31632">
        <ele>1</ele>
        <time>2022-10-02T10:43:03.403Z</time>
      </trkpt>
      <trkpt lat="43.10658" lon="6.31642">
        <ele>1</ele>
        <time>2022-10-02T10:43:18.551Z</time>
      </trkpt>
      <trkpt lat="43.10652" lon="6.31653">
        <ele>1</ele>
        <time>2022-10-02T10:43:34.620Z</time>
      </trkpt>
      <trkpt lat="43.10647" lon="6.31663">
        <ele>1</ele>
        <time>2022-10-02T10:43:48.804Z</time>
      </trkpt>
      <trkpt lat="43.10643" lon="6.31674">
        <ele>1.1</ele>
        <time>2022-10-02T10:44:04.820Z</time>
      </trkpt>
      <trkpt lat="43.10635" lon="6.31684">
        <ele>1</ele>
        <time>2022-10-02T10:44:09.813Z</time>
      </trkpt>
      <trkpt lat="43.10626" lon="6.31693">
        <ele>1</ele>
        <time>2022-10-02T10:44:27.675Z</time>
      </trkpt>
      <trkpt lat="43.10623" lon="6.31709">
        <ele>2.4</ele>
        <time>2022-10-02T10:45:27.291Z</time>
      </trkpt>
      <trkpt lat="43.10615" lon="6.31712">
        <ele>3.3</ele>
        <time>2022-10-02T10:46:04.990Z</time>
      </trkpt>
      <trkpt lat="43.10604" lon="6.31711">
        <ele>3.1</ele>
        <time>2022-10-02T10:46:09.530Z</time>
      </trkpt>
      <trkpt lat="43.10593" lon="6.31716">
        <ele>3.1</ele>
        <time>2022-10-02T10:46:28.107Z</time>
      </trkpt>
      <trkpt lat="43.10578" lon="6.31719">
        <ele>3</ele>
        <time>2022-10-02T10:46:50.176Z</time>
      </trkpt>
      <trkpt lat="43.10566" lon="6.31719">
        <ele>3</ele>
        <time>2022-10-02T10:47:09.411Z</time>
      </trkpt>
      <trkpt lat="43.10556" lon="6.31716">
        <ele>3</ele>
        <time>2022-10-02T10:47:25.820Z</time>
      </trkpt>
      <trkpt lat="43.10546" lon="6.31717">
        <ele>3</ele>
        <time>2022-10-02T10:47:41.892Z</time>
      </trkpt>
      <trkpt lat="43.10535" lon="6.31717">
        <ele>3</ele>
        <time>2022-10-02T10:47:59.525Z</time>
      </trkpt>
      <trkpt lat="43.10524" lon="6.3172">
        <ele>2.73</ele>
        <time>2022-10-02T10:48:03.836Z</time>
      </trkpt>
      <trkpt lat="43.10516" lon="6.3173">
        <ele>3.7</ele>
        <time>2022-10-02T10:48:44.814Z</time>
      </trkpt>
      <trkpt lat="43.10509" lon="6.31742">
        <ele>5.3</ele>
        <time>2022-10-02T10:49:54.149Z</time>
      </trkpt>
      <trkpt lat="43.10502" lon="6.31754">
        <ele>7.1</ele>
        <time>2022-10-02T10:51:03.484Z</time>
      </trkpt>
      <trkpt lat="43.10495" lon="6.31766">
        <ele>8.5</ele>
        <time>2022-10-02T10:52:05.159Z</time>
      </trkpt>
      <trkpt lat="43.10492" lon="6.31775">
        <ele>8.7</ele>
        <time>2022-10-02T10:52:20.672Z</time>
      </trkpt>
      <trkpt lat="43.10486" lon="6.31787">
        <ele>7.4</ele>
        <time>2022-10-02T10:52:23.689Z</time>
      </trkpt>
      <trkpt lat="43.10485" lon="6.31798">
        <ele>7.3</ele>
        <time>2022-10-02T10:52:27.270Z</time>
      </trkpt>
      <trkpt lat="43.10484" lon="6.3181">
        <ele>7</ele>
        <time>2022-10-02T10:52:30.320Z</time>
      </trkpt>
      <trkpt lat="43.10482" lon="6.31824">
        <ele>6.3</ele>
        <time>2022-10-02T10:52:33.279Z</time>
      </trkpt>
      <trkpt lat="43.10481" lon="6.31838">
        <ele>6.5</ele>
        <time>2022-10-02T10:52:53.316Z</time>
      </trkpt>
      <trkpt lat="43.10478" lon="6.31852">
        <ele>5.7</ele>
        <time>2022-10-02T10:52:56.343Z</time>
      </trkpt>
      <trkpt lat="43.10478" lon="6.31866">
        <ele>6.1</ele>
        <time>2022-10-02T10:53:21.882Z</time>
      </trkpt>
      <trkpt lat="43.10478" lon="6.3188">
        <ele>7</ele>
        <time>2022-10-02T10:54:00.045Z</time>
      </trkpt>
      <trkpt lat="43.10475" lon="6.31889">
        <ele>6.7</ele>
        <time>2022-10-02T10:54:02.368Z</time>
      </trkpt>
      <trkpt lat="43.10468" lon="6.31899">
        <ele>7</ele>
        <time>2022-10-02T10:54:24.629Z</time>
      </trkpt>
      <trkpt lat="43.10462" lon="6.31911">
        <ele>6.6</ele>
        <time>2022-10-02T10:54:28.171Z</time>
      </trkpt>
      <trkpt lat="43.10455" lon="6.31918">
        <ele>4.5</ele>
        <time>2022-10-02T10:54:30.634Z</time>
      </trkpt>
      <trkpt lat="43.1045" lon="6.3193">
        <ele>3.6</ele>
        <time>2022-10-02T10:54:33.501Z</time>
      </trkpt>
      <trkpt lat="43.10444" lon="6.31939">
        <ele>2.6</ele>
        <time>2022-10-02T10:54:36.029Z</time>
      </trkpt>
      <trkpt lat="43.10439" lon="6.31953">
        <ele>3.4</ele>
        <time>2022-10-02T10:55:12.816Z</time>
      </trkpt>
      <trkpt lat="43.10429" lon="6.3196">
        <ele>2.9</ele>
        <time>2022-10-02T10:55:16.329Z</time>
      </trkpt>
      <trkpt lat="43.10421" lon="6.31966">
        <ele>1.9</ele>
        <time>2022-10-02T10:55:18.921Z</time>
      </trkpt>
      <trkpt lat="43.10411" lon="6.31975">
        <ele>1.3</ele>
        <time>2022-10-02T10:55:22.482Z</time>
      </trkpt>
      <trkpt lat="43.10401" lon="6.31981">
        <ele>1.7</ele>
        <time>2022-10-02T10:55:48.821Z</time>
      </trkpt>
      <trkpt lat="43.10391" lon="6.31986">
        <ele>1.6</ele>
        <time>2022-10-02T10:55:53.718Z</time>
      </trkpt>
      <trkpt lat="43.1038" lon="6.3199">
        <ele>1.67</ele>
        <time>2022-10-02T10:56:13.050Z</time>
      </trkpt>
      <trkpt lat="43.1037" lon="6.31994">
        <ele>1.32</ele>
        <time>2022-10-02T10:56:16.669Z</time>
      </trkpt>
      <trkpt lat="43.10359" lon="6.31996">
        <ele>1</ele>
        <time>2022-10-02T10:56:20.719Z</time>
      </trkpt>
      <trkpt lat="43.10348" lon="6.31998">
        <ele>1</ele>
        <time>2022-10-02T10:56:38.506Z</time>
      </trkpt>
      <trkpt lat="43.10338" lon="6.31997">
        <ele>1</ele>
        <time>2022-10-02T10:56:54.578Z</time>
      </trkpt>
      <trkpt lat="43.10337" lon="6.31994">
        <ele>1</ele>
        <time>2022-10-02T10:56:58.437Z</time>
      </trkpt>
      <trkpt lat="43.10326" lon="6.31992">
        <ele>1.2</ele>
        <time>2022-10-02T10:57:19.741Z</time>
      </trkpt>
      <trkpt lat="43.10315" lon="6.31986">
        <ele>1.3</ele>
        <time>2022-10-02T10:57:40.312Z</time>
      </trkpt>
      <trkpt lat="43.10307" lon="6.31977">
        <ele>1.1</ele>
        <time>2022-10-02T10:57:44.515Z</time>
      </trkpt>
      <trkpt lat="43.10299" lon="6.31969">
        <ele>2</ele>
        <time>2022-10-02T10:58:22.428Z</time>
      </trkpt>
      <trkpt lat="43.1029" lon="6.3196">
        <ele>3.2</ele>
        <time>2022-10-02T10:59:12.640Z</time>
      </trkpt>
      <trkpt lat="43.10289" lon="6.31945">
        <ele>4</ele>
        <time>2022-10-02T10:59:48.861Z</time>
      </trkpt>
      <trkpt lat="43.10285" lon="6.31932">
        <ele>3.5</ele>
        <time>2022-10-02T10:59:51.969Z</time>
      </trkpt>
      <trkpt lat="43.10283" lon="6.3192">
        <ele>3.1</ele>
        <time>2022-10-02T10:59:54.781Z</time>
      </trkpt>
      <trkpt lat="43.10284" lon="6.31911">
        <ele>2.6</ele>
        <time>2022-10-02T10:59:56.670Z</time>
      </trkpt>
      <trkpt lat="43.10277" lon="6.31901">
        <ele>1.9</ele>
        <time>2022-10-02T10:59:59.544Z</time>
      </trkpt>
      <trkpt lat="43.10267" lon="6.319">
        <ele>2.4</ele>
        <time>2022-10-02T11:00:27.622Z</time>
      </trkpt>
      <trkpt lat="43.10257" lon="6.31901">
        <ele>3.3</ele>
        <time>2022-10-02T11:01:05.626Z</time>
      </trkpt>
      <trkpt lat="43.10248" lon="6.31909">
        <ele>5.2</ele>
        <time>2022-10-02T11:02:11.962Z</time>
      </trkpt>
      <trkpt lat="43.10243" lon="6.3192">
        <ele>6.9</ele>
        <time>2022-10-02T11:03:10.455Z</time>
      </trkpt>
      <trkpt lat="43.10234" lon="6.31929">
        <ele>5.7</ele>
        <time>2022-10-02T11:03:13.621Z</time>
      </trkpt>
      <trkpt lat="43.10228" lon="6.31936">
        <ele>3.8</ele>
        <time>2022-10-02T11:03:15.861Z</time>
      </trkpt>
      <trkpt lat="43.10229" lon="6.3195">
        <ele>3.5</ele>
        <time>2022-10-02T11:03:19.594Z</time>
      </trkpt>
      <trkpt lat="43.1022" lon="6.31959">
        <ele>3.5</ele>
        <time>2022-10-02T11:03:37.457Z</time>
      </trkpt>
      <trkpt lat="43.10209" lon="6.31966">
        <ele>4.1</ele>
        <time>2022-10-02T11:04:11.335Z</time>
      </trkpt>
      <trkpt lat="43.10204" lon="6.31977">
        <ele>5.4</ele>
        <time>2022-10-02T11:05:09.828Z</time>
      </trkpt>
      <trkpt lat="43.10195" lon="6.31984">
        <ele>6.5</ele>
        <time>2022-10-02T11:05:55.784Z</time>
      </trkpt>
      <trkpt lat="43.10189" lon="6.31993">
        <ele>7.2</ele>
        <time>2022-10-02T11:06:26.492Z</time>
      </trkpt>
      <trkpt lat="43.10182" lon="6.32">
        <ele>6.9</ele>
        <time>2022-10-02T11:06:29.472Z</time>
      </trkpt>
      <trkpt lat="43.10178" lon="6.3201">
        <ele>8.4</ele>
        <time>2022-10-02T11:07:20.945Z</time>
      </trkpt>
      <trkpt lat="43.10177" lon="6.32021">
        <ele>11.1</ele>
        <time>2022-10-02T11:08:10.986Z</time>
      </trkpt>
      <trkpt lat="43.1017" lon="6.32033">
        <ele>13.4</ele>
        <time>2022-10-02T11:09:20.323Z</time>
      </trkpt>
      <trkpt lat="43.1016" lon="6.3204">
        <ele>12.5</ele>
        <time>2022-10-02T11:09:23.514Z</time>
      </trkpt>
      <trkpt lat="43.10153" lon="6.32051">
        <ele>13.4</ele>
        <time>2022-10-02T11:10:02.089Z</time>
      </trkpt>
      <trkpt lat="43.10142" lon="6.32058">
        <ele>13.2</ele>
        <time>2022-10-02T11:10:07.184Z</time>
      </trkpt>
      <trkpt lat="43.10131" lon="6.32064">
        <ele>12.5</ele>
        <time>2022-10-02T11:10:10.453Z</time>
      </trkpt>
      <trkpt lat="43.10121" lon="6.32073">
        <ele>13.4</ele>
        <time>2022-10-02T11:10:50.628Z</time>
      </trkpt>
      <trkpt lat="43.10111" lon="6.32085">
        <ele>16.4</ele>
        <time>2022-10-02T11:12:12.831Z</time>
      </trkpt>
      <trkpt lat="43.10105" lon="6.32095">
        <ele>16</ele>
        <time>2022-10-02T11:12:15.847Z</time>
      </trkpt>
      <trkpt lat="43.10097" lon="6.32102">
        <ele>15</ele>
        <time>2022-10-02T11:12:18.545Z</time>
      </trkpt>
      <trkpt lat="43.1009" lon="6.3211">
        <ele>15.1</ele>
        <time>2022-10-02T11:12:34.791Z</time>
      </trkpt>
      <trkpt lat="43.10089" lon="6.32123">
        <ele>15.6</ele>
        <time>2022-10-02T11:13:01.967Z</time>
      </trkpt>
      <trkpt lat="43.10088" lon="6.32139">
        <ele>16.8</ele>
        <time>2022-10-02T11:13:51.985Z</time>
      </trkpt>
      <trkpt lat="43.10088" lon="6.32153">
        <ele>15.2</ele>
        <time>2022-10-02T11:13:54.890Z</time>
      </trkpt>
      <trkpt lat="43.10086" lon="6.32166">
        <ele>13.4</ele>
        <time>2022-10-02T11:13:57.646Z</time>
      </trkpt>
      <trkpt lat="43.10085" lon="6.32181">
        <ele>11.2</ele>
        <time>2022-10-02T11:14:00.771Z</time>
      </trkpt>
      <trkpt lat="43.10085" lon="6.32196">
        <ele>9.3</ele>
        <time>2022-10-02T11:14:03.883Z</time>
      </trkpt>
      <trkpt lat="43.10085" lon="6.3221">
        <ele>7.2</ele>
        <time>2022-10-02T11:14:06.788Z</time>
      </trkpt>
      <trkpt lat="43.10087" lon="6.32223">
        <ele>6.1</ele>
        <time>2022-10-02T11:14:09.544Z</time>
      </trkpt>
      <trkpt lat="43.1009" lon="6.32236">
        <ele>6.9</ele>
        <time>2022-10-02T11:14:44.375Z</time>
      </trkpt>
      <trkpt lat="43.10088" lon="6.3225">
        <ele>5.8</ele>
        <time>2022-10-02T11:14:47.334Z</time>
      </trkpt>
      <trkpt lat="43.10092" lon="6.32263">
        <ele>6.4</ele>
        <time>2022-10-02T11:15:17.854Z</time>
      </trkpt>
      <trkpt lat="43.10099" lon="6.32274">
        <ele>9</ele>
        <time>2022-10-02T11:16:23.725Z</time>
      </trkpt>
      <trkpt lat="43.10098" lon="6.3229">
        <ele>8</ele>
        <time>2022-10-02T11:16:27.057Z</time>
      </trkpt>
      <trkpt lat="43.10101" lon="6.32304">
        <ele>8.6</ele>
        <time>2022-10-02T11:16:58.206Z</time>
      </trkpt>
      <trkpt lat="43.10101" lon="6.32318">
        <ele>7.4</ele>
        <time>2022-10-02T11:17:01.111Z</time>
      </trkpt>
      <trkpt lat="43.10099" lon="6.32329">
        <ele>5.9</ele>
        <time>2022-10-02T11:17:03.462Z</time>
      </trkpt>
      <trkpt lat="43.1009" lon="6.32336">
        <ele>3</ele>
        <time>2022-10-02T11:17:06.403Z</time>
      </trkpt>
      <trkpt lat="43.10087" lon="6.32348">
        <ele>2.3</ele>
        <time>2022-10-02T11:17:09.035Z</time>
      </trkpt>
      <trkpt lat="43.10079" lon="6.32357">
        <ele>1.9</ele>
        <time>2022-10-02T11:17:12.457Z</time>
      </trkpt>
      <trkpt lat="43.10074" lon="6.32368">
        <ele>2.1</ele>
        <time>2022-10-02T11:17:31.264Z</time>
      </trkpt>
      <trkpt lat="43.10066" lon="6.32378">
        <ele>1.8</ele>
        <time>2022-10-02T11:17:35.265Z</time>
      </trkpt>
      <trkpt lat="43.10058" lon="6.32387">
        <ele>1.3</ele>
        <time>2022-10-02T11:17:38.396Z</time>
      </trkpt>
      <trkpt lat="43.10053" lon="6.32396">
        <ele>1.4</ele>
        <time>2022-10-02T11:17:53.283Z</time>
      </trkpt>
      <trkpt lat="43.10047" lon="6.32406">
        <ele>1.8</ele>
        <time>2022-10-02T11:18:18.023Z</time>
      </trkpt>
      <trkpt lat="43.10039" lon="6.32413">
        <ele>1.7</ele>
        <time>2022-10-02T11:18:22.324Z</time>
      </trkpt>
      <trkpt lat="43.10029" lon="6.3242">
        <ele>1.1</ele>
        <time>2022-10-02T11:18:25.574Z</time>
      </trkpt>
      <trkpt lat="43.10021" lon="6.32427">
        <ele>1</ele>
        <time>2022-10-02T11:18:29.875Z</time>
      </trkpt>
      <trkpt lat="43.10012" lon="6.32433">
        <ele>1</ele>
        <time>2022-10-02T11:18:45.920Z</time>
      </trkpt>
      <trkpt lat="43.10003" lon="6.3244">
        <ele>1</ele>
        <time>2022-10-02T11:19:02.510Z</time>
      </trkpt>
      <trkpt lat="43.09996" lon="6.3245">
        <ele>1.2</ele>
        <time>2022-10-02T11:19:22.310Z</time>
      </trkpt>
      <trkpt lat="43.09989" lon="6.32458">
        <ele>1.3</ele>
        <time>2022-10-02T11:19:38.556Z</time>
      </trkpt>
      <trkpt lat="43.0998" lon="6.32465">
        <ele>1.2</ele>
        <time>2022-10-02T11:19:43.300Z</time>
      </trkpt>
      <trkpt lat="43.09975" lon="6.32467">
        <ele>1.1</ele>
        <time>2022-10-02T11:19:45.418Z</time>
      </trkpt>
      <trkpt lat="43.09966" lon="6.32471">
        <ele>1</ele>
        <time>2022-10-02T11:19:49.703Z</time>
      </trkpt>
      <trkpt lat="43.09961" lon="6.32476">
        <ele>1.2</ele>
        <time>2022-10-02T11:20:03.797Z</time>
      </trkpt>
      <trkpt lat="43.09952" lon="6.3248">
        <ele>1.4</ele>
        <time>2022-10-02T11:20:22.606Z</time>
      </trkpt>
      <trkpt lat="43.0995" lon="6.32482">
        <ele>1.4</ele>
        <time>2022-10-02T11:20:26.575Z</time>
      </trkpt>
      <trkpt lat="43.0994" lon="6.32486">
        <ele>1.4</ele>
        <time>2022-10-02T11:20:43.274Z</time>
      </trkpt>
      <trkpt lat="43.09931" lon="6.32491">
        <ele>1.3</ele>
        <time>2022-10-02T11:20:47.689Z</time>
      </trkpt>
      <trkpt lat="43.09922" lon="6.32495">
        <ele>1.1</ele>
        <time>2022-10-02T11:20:51.450Z</time>
      </trkpt>
      <trkpt lat="43.09912" lon="6.32501">
        <ele>1.1</ele>
        <time>2022-10-02T11:21:08.950Z</time>
      </trkpt>
      <trkpt lat="43.09902" lon="6.32504">
        <ele>1.3</ele>
        <time>2022-10-02T11:21:28.936Z</time>
      </trkpt>
      <trkpt lat="43.09891" lon="6.32507">
        <ele>1.5</ele>
        <time>2022-10-02T11:21:50.424Z</time>
      </trkpt>
      <trkpt lat="43.09882" lon="6.3251">
        <ele>1.7</ele>
        <time>2022-10-02T11:22:08.932Z</time>
      </trkpt>
      <trkpt lat="43.09872" lon="6.32512">
        <ele>1.9</ele>
        <time>2022-10-02T11:22:28.718Z</time>
      </trkpt>
      <trkpt lat="43.09861" lon="6.32512">
        <ele>1.8</ele>
        <time>2022-10-02T11:22:33.798Z</time>
      </trkpt>
      <trkpt lat="43.09851" lon="6.32511">
        <ele>1.8</ele>
        <time>2022-10-02T11:22:49.870Z</time>
      </trkpt>
      <trkpt lat="43.09842" lon="6.3251">
        <ele>1.7</ele>
        <time>2022-10-02T11:22:53.932Z</time>
      </trkpt>
      <trkpt lat="43.09831" lon="6.32508">
        <ele>1.6</ele>
        <time>2022-10-02T11:22:59.063Z</time>
      </trkpt>
      <trkpt lat="43.09819" lon="6.32506">
        <ele>1.8</ele>
        <time>2022-10-02T11:23:21.901Z</time>
      </trkpt>
      <trkpt lat="43.09808" lon="6.32505">
        <ele>1.8</ele>
        <time>2022-10-02T11:23:39.572Z</time>
      </trkpt>
      <trkpt lat="43.09795" lon="6.32504">
        <ele>2.7</ele>
        <time>2022-10-02T11:24:21.293Z</time>
      </trkpt>
      <trkpt lat="43.09785" lon="6.32497">
        <ele>3</ele>
        <time>2022-10-02T11:24:45.127Z</time>
      </trkpt>
      <trkpt lat="43.09778" lon="6.32486">
        <ele>2.5</ele>
        <time>2022-10-02T11:24:48.388Z</time>
      </trkpt>
      <trkpt lat="43.09775" lon="6.32475">
        <ele>1.4</ele>
        <time>2022-10-02T11:24:50.824Z</time>
      </trkpt>
      <trkpt lat="43.09767" lon="6.32475">
        <ele>1.6</ele>
        <time>2022-10-02T11:25:07.456Z</time>
      </trkpt>
      <trkpt lat="43.0976" lon="6.32478">
        <ele>2.1</ele>
        <time>2022-10-02T11:25:30.792Z</time>
      </trkpt>
      <trkpt lat="43.09751" lon="6.3248">
        <ele>2.5</ele>
        <time>2022-10-02T11:25:55.226Z</time>
      </trkpt>
      <trkpt lat="43.09749" lon="6.32482">
        <ele>2.6</ele>
        <time>2022-10-02T11:26:01.526Z</time>
      </trkpt>
      <trkpt lat="43.09743" lon="6.32493">
        <ele>2.9</ele>
        <time>2022-10-02T11:26:23.664Z</time>
      </trkpt>
      <trkpt lat="43.09735" lon="6.32508">
        <ele>3.3</ele>
        <time>2022-10-02T11:26:53.452Z</time>
      </trkpt>
      <trkpt lat="43.09725" lon="6.32521">
        <ele>3.6</ele>
        <time>2022-10-02T11:27:21.054Z</time>
      </trkpt>
      <trkpt lat="43.09717" lon="6.32532">
        <ele>4.4</ele>
        <time>2022-10-02T11:27:57.778Z</time>
      </trkpt>
      <trkpt lat="43.09705" lon="6.32536">
        <ele>4.8</ele>
        <time>2022-10-02T11:28:25.925Z</time>
      </trkpt>
      <trkpt lat="43.09693" lon="6.32536">
        <ele>4.8</ele>
        <time>2022-10-02T11:28:45.160Z</time>
      </trkpt>
      <trkpt lat="43.09682" lon="6.32532">
        <ele>3.9</ele>
        <time>2022-10-02T11:28:48.394Z</time>
      </trkpt>
      <trkpt lat="43.0967" lon="6.32529">
        <ele>3.3</ele>
        <time>2022-10-02T11:28:52.054Z</time>
      </trkpt>
      <trkpt lat="43.09663" lon="6.32532">
        <ele>3.2</ele>
        <time>2022-10-02T11:28:55.246Z</time>
      </trkpt>
      <trkpt lat="43.0965" lon="6.32531">
        <ele>2.6</ele>
        <time>2022-10-02T11:28:59.262Z</time>
      </trkpt>
      <trkpt lat="43.09636" lon="6.32535">
        <ele>2.5</ele>
        <time>2022-10-02T11:29:19.968Z</time>
      </trkpt>
      <trkpt lat="43.09625" lon="6.3254">
        <ele>2.4</ele>
        <time>2022-10-02T11:29:25.355Z</time>
      </trkpt>
      <trkpt lat="43.09614" lon="6.32546">
        <ele>2.4</ele>
        <time>2022-10-02T11:29:44.334Z</time>
      </trkpt>
      <trkpt lat="43.09605" lon="6.3255">
        <ele>2.4</ele>
        <time>2022-10-02T11:29:59.501Z</time>
      </trkpt>
      <trkpt lat="43.09594" lon="6.32552">
        <ele>2.2</ele>
        <time>2022-10-02T11:30:04.077Z</time>
      </trkpt>
      <trkpt lat="43.09585" lon="6.32553">
        <ele>1.9</ele>
        <time>2022-10-02T11:30:07.225Z</time>
      </trkpt>
      <trkpt lat="43.09573" lon="6.3255">
        <ele>2</ele>
        <time>2022-10-02T11:30:28.366Z</time>
      </trkpt>
      <trkpt lat="43.09563" lon="6.32548">
        <ele>2</ele>
        <time>2022-10-02T11:30:44.565Z</time>
      </trkpt>
      <trkpt lat="43.09553" lon="6.32546">
        <ele>1.7</ele>
        <time>2022-10-02T11:30:48.220Z</time>
      </trkpt>
      <trkpt lat="43.09541" lon="6.32546">
        <ele>1.7</ele>
        <time>2022-10-02T11:31:07.456Z</time>
      </trkpt>
      <trkpt lat="43.09531" lon="6.32547">
        <ele>1.7</ele>
        <time>2022-10-02T11:31:23.528Z</time>
      </trkpt>
      <trkpt lat="43.0952" lon="6.32544">
        <ele>1.8</ele>
        <time>2022-10-02T11:31:43.105Z</time>
      </trkpt>
      <trkpt lat="43.09512" lon="6.32542">
        <ele>1.8</ele>
        <time>2022-10-02T11:31:56.140Z</time>
      </trkpt>
      <trkpt lat="43.09514" lon="6.32538">
        <ele>1.6</ele>
        <time>2022-10-02T11:31:57.139Z</time>
      </trkpt>
      <trkpt lat="43.09515" lon="6.32538">
        <ele>1.5</ele>
        <time>2022-10-02T11:31:57.423Z</time>
      </trkpt>
      <trkpt lat="43.09519" lon="6.32536">
        <ele>1.4</ele>
        <time>2022-10-02T11:31:59.071Z</time>
      </trkpt>
      <trkpt lat="43.0953" lon="6.32536">
        <ele>1.3</ele>
        <time>2022-10-02T11:32:04.151Z</time>
      </trkpt>
      <trkpt lat="43.09539" lon="6.32534">
        <ele>1.2</ele>
        <time>2022-10-02T11:32:08.259Z</time>
      </trkpt>
      <trkpt lat="43.09549" lon="6.32536">
        <ele>1.3</ele>
        <time>2022-10-02T11:32:26.073Z</time>
      </trkpt>
      <trkpt lat="43.09559" lon="6.3254">
        <ele>2</ele>
        <time>2022-10-02T11:32:58.979Z</time>
      </trkpt>
      <trkpt lat="43.09569" lon="6.32544">
        <ele>2</ele>
        <time>2022-10-02T11:33:15.678Z</time>
      </trkpt>
      <trkpt lat="43.09578" lon="6.32546">
        <ele>2</ele>
        <time>2022-10-02T11:33:30.293Z</time>
      </trkpt>
      <trkpt lat="43.09588" lon="6.32545">
        <ele>1.7</ele>
        <time>2022-10-02T11:33:33.911Z</time>
      </trkpt>
      <trkpt lat="43.09597" lon="6.32545">
        <ele>1.9</ele>
        <time>2022-10-02T11:33:52.024Z</time>
      </trkpt>
      <trkpt lat="43.09609" lon="6.32544">
        <ele>2.1</ele>
        <time>2022-10-02T11:34:14.759Z</time>
      </trkpt>
      <trkpt lat="43.09619" lon="6.32542">
        <ele>2.3</ele>
        <time>2022-10-02T11:34:34.545Z</time>
      </trkpt>
      <trkpt lat="43.09628" lon="6.32537">
        <ele>2.3</ele>
        <time>2022-10-02T11:34:50.113Z</time>
      </trkpt>
      <trkpt lat="43.09636" lon="6.32532">
        <ele>2.2</ele>
        <time>2022-10-02T11:34:54.054Z</time>
      </trkpt>
      <trkpt lat="43.09646" lon="6.32528">
        <ele>2.3</ele>
        <time>2022-10-02T11:35:12.363Z</time>
      </trkpt>
      <trkpt lat="43.09658" lon="6.32528">
        <ele>2.7</ele>
        <time>2022-10-02T11:35:40.052Z</time>
      </trkpt>
      <trkpt lat="43.09672" lon="6.32531">
        <ele>3.4</ele>
        <time>2022-10-02T11:36:19.614Z</time>
      </trkpt>
      <trkpt lat="43.09682" lon="6.32531">
        <ele>3.9</ele>
        <time>2022-10-02T11:36:47.642Z</time>
      </trkpt>
      <trkpt lat="43.09692" lon="6.32532">
        <ele>4.4</ele>
        <time>2022-10-02T11:37:15.720Z</time>
      </trkpt>
      <trkpt lat="43.097" lon="6.32534">
        <ele>4.7</ele>
        <time>2022-10-02T11:37:35.408Z</time>
      </trkpt>
      <trkpt lat="43.09711" lon="6.32534">
        <ele>4.7</ele>
        <time>2022-10-02T11:37:53.040Z</time>
      </trkpt>
      <trkpt lat="43.09722" lon="6.32532">
        <ele>4.4</ele>
        <time>2022-10-02T11:37:57.169Z</time>
      </trkpt>
      <trkpt lat="43.09732" lon="6.32524">
        <ele>4.6</ele>
        <time>2022-10-02T11:38:19.221Z</time>
      </trkpt>
      <trkpt lat="43.09738" lon="6.32509">
        <ele>3.7</ele>
        <time>2022-10-02T11:38:22.770Z</time>
      </trkpt>
      <trkpt lat="43.09747" lon="6.32497">
        <ele>3.5</ele>
        <time>2022-10-02T11:38:28.083Z</time>
      </trkpt>
      <trkpt lat="43.09754" lon="6.32489">
        <ele>3.2</ele>
        <time>2022-10-02T11:38:31.273Z</time>
      </trkpt>
      <trkpt lat="43.09764" lon="6.32483">
        <ele>2.5</ele>
        <time>2022-10-02T11:38:34.171Z</time>
      </trkpt>
      <trkpt lat="43.09772" lon="6.32477">
        <ele>1.7</ele>
        <time>2022-10-02T11:38:36.762Z</time>
      </trkpt>
      <trkpt lat="43.0978" lon="6.32473">
        <ele>1.1</ele>
        <time>2022-10-02T11:38:39.182Z</time>
      </trkpt>
      <trkpt lat="43.09787" lon="6.32485">
        <ele>2</ele>
        <time>2022-10-02T11:39:18.386Z</time>
      </trkpt>
      <trkpt lat="43.09794" lon="6.32495">
        <ele>2</ele>
        <time>2022-10-02T11:39:34.600Z</time>
      </trkpt>
      <trkpt lat="43.09804" lon="6.325">
        <ele>1.2</ele>
        <time>2022-10-02T11:39:37.625Z</time>
      </trkpt>
      <trkpt lat="43.09813" lon="6.32504">
        <ele>1.6</ele>
        <time>2022-10-02T11:40:02.376Z</time>
      </trkpt>
      <trkpt lat="43.09823" lon="6.32508">
        <ele>1.9</ele>
        <time>2022-10-02T11:40:25.058Z</time>
      </trkpt>
      <trkpt lat="43.09832" lon="6.32508">
        <ele>1.6</ele>
        <time>2022-10-02T11:40:28.193Z</time>
      </trkpt>
      <trkpt lat="43.09841" lon="6.3251">
        <ele>1.7</ele>
        <time>2022-10-02T11:40:44.440Z</time>
      </trkpt>
      <trkpt lat="43.09851" lon="6.3251">
        <ele>1.7</ele>
        <time>2022-10-02T11:41:00.470Z</time>
      </trkpt>
      <trkpt lat="43.0986" lon="6.32511">
        <ele>1.8</ele>
        <time>2022-10-02T11:41:16.577Z</time>
      </trkpt>
      <trkpt lat="43.0987" lon="6.32511">
        <ele>1.8</ele>
        <time>2022-10-02T11:41:32.607Z</time>
      </trkpt>
      <trkpt lat="43.09875" lon="6.32509">
        <ele>1.6</ele>
        <time>2022-10-02T11:41:34.332Z</time>
      </trkpt>
      <trkpt lat="43.09885" lon="6.32507">
        <ele>1.5</ele>
        <time>2022-10-02T11:41:38.950Z</time>
      </trkpt>
      <trkpt lat="43.09895" lon="6.32507">
        <ele>1.5</ele>
        <time>2022-10-02T11:41:54.979Z</time>
      </trkpt>
      <trkpt lat="43.09905" lon="6.32507">
        <ele>1.5</ele>
        <time>2022-10-02T11:42:11.009Z</time>
      </trkpt>
      <trkpt lat="43.09914" lon="6.32509">
        <ele>1.6</ele>
        <time>2022-10-02T11:42:27.256Z</time>
      </trkpt>
      <trkpt lat="43.09919" lon="6.3251">
        <ele>1.8</ele>
        <time>2022-10-02T11:42:39.962Z</time>
      </trkpt>
      <trkpt lat="43.09929" lon="6.32517">
        <ele>2.4</ele>
        <time>2022-10-02T11:43:12.162Z</time>
      </trkpt>
      <trkpt lat="43.09934" lon="6.32528">
        <ele>3</ele>
        <time>2022-10-02T11:43:41.236Z</time>
      </trkpt>
      <trkpt lat="43.09939" lon="6.3254">
        <ele>3.1</ele>
        <time>2022-10-02T11:43:59.021Z</time>
      </trkpt>
      <trkpt lat="43.09943" lon="6.32551">
        <ele>3</ele>
        <time>2022-10-02T11:44:03.054Z</time>
      </trkpt>
      <trkpt lat="43.09945" lon="6.32558">
        <ele>3.1</ele>
        <time>2022-10-02T11:44:13.614Z</time>
      </trkpt>
      <trkpt lat="43.09949" lon="6.3256">
        <ele>3</ele>
        <time>2022-10-02T11:44:15.262Z</time>
      </trkpt>
      <trkpt lat="43.09956" lon="6.32568">
        <ele>3</ele>
        <time>2022-10-02T11:44:29.876Z</time>
      </trkpt>
      <trkpt lat="43.09963" lon="6.3258">
        <ele>3.2</ele>
        <time>2022-10-02T11:44:51.363Z</time>
      </trkpt>
      <trkpt lat="43.09969" lon="6.3259">
        <ele>3.2</ele>
        <time>2022-10-02T11:45:06.511Z</time>
      </trkpt>
      <trkpt lat="43.09973" lon="6.32601">
        <ele>3</ele>
        <time>2022-10-02T11:45:10.031Z</time>
      </trkpt>
      <trkpt lat="43.09976" lon="6.32612">
        <ele>3.1</ele>
        <time>2022-10-02T11:45:25.418Z</time>
      </trkpt>
      <trkpt lat="43.09984" lon="6.32617">
        <ele>3.2</ele>
        <time>2022-10-02T11:45:41.153Z</time>
      </trkpt>
      <trkpt lat="43.09993" lon="6.3263">
        <ele>3.3</ele>
        <time>2022-10-02T11:46:03.699Z</time>
      </trkpt>
      <trkpt lat="43.09998" lon="6.3264">
        <ele>3.3</ele>
        <time>2022-10-02T11:46:17.884Z</time>
      </trkpt>
      <trkpt lat="43.10005" lon="6.32653">
        <ele>4.2</ele>
        <time>2022-10-02T11:46:57.826Z</time>
      </trkpt>
      <trkpt lat="43.10018" lon="6.32666">
        <ele>4.1</ele>
        <time>2022-10-02T11:47:21.385Z</time>
      </trkpt>
      <trkpt lat="43.10028" lon="6.32678">
        <ele>3.4</ele>
        <time>2022-10-02T11:47:25.257Z</time>
      </trkpt>
      <trkpt lat="43.10035" lon="6.32691">
        <ele>3.6</ele>
        <time>2022-10-02T11:47:47.639Z</time>
      </trkpt>
      <trkpt lat="43.10043" lon="6.32703">
        <ele>3.9</ele>
        <time>2022-10-02T11:48:12.390Z</time>
      </trkpt>
      <trkpt lat="43.10048" lon="6.32712">
        <ele>4.4</ele>
        <time>2022-10-02T11:48:37.252Z</time>
      </trkpt>
      <trkpt lat="43.10058" lon="6.32726">
        <ele>4.9</ele>
        <time>2022-10-02T11:49:10.975Z</time>
      </trkpt>
      <trkpt lat="43.10069" lon="6.32739">
        <ele>4.8</ele>
        <time>2022-10-02T11:49:32.042Z</time>
      </trkpt>
      <trkpt lat="43.10078" lon="6.32751">
        <ele>5</ele>
        <time>2022-10-02T11:49:55.614Z</time>
      </trkpt>
      <trkpt lat="43.10089" lon="6.32759">
        <ele>5.3</ele>
        <time>2022-10-02T11:50:21.230Z</time>
      </trkpt>
      <trkpt lat="43.10103" lon="6.32757">
        <ele>5.2</ele>
        <time>2022-10-02T11:50:41.578Z</time>
      </trkpt>
      <trkpt lat="43.10116" lon="6.32758">
        <ele>5.3</ele>
        <time>2022-10-02T11:51:04.028Z</time>
      </trkpt>
      <trkpt lat="43.10127" lon="6.32757">
        <ele>5.4</ele>
        <time>2022-10-02T11:51:23.301Z</time>
      </trkpt>
      <trkpt lat="43.10136" lon="6.32756">
        <ele>5.4</ele>
        <time>2022-10-02T11:51:37.774Z</time>
      </trkpt>
      <trkpt lat="43.1015" lon="6.32761">
        <ele>6.1</ele>
        <time>2022-10-02T11:52:17.901Z</time>
      </trkpt>
      <trkpt lat="43.10158" lon="6.3277">
        <ele>6.6</ele>
        <time>2022-10-02T11:52:46.597Z</time>
      </trkpt>
      <trkpt lat="43.10161" lon="6.32781">
        <ele>7.2</ele>
        <time>2022-10-02T11:53:14.248Z</time>
      </trkpt>
      <trkpt lat="43.10166" lon="6.32794">
        <ele>8.1</ele>
        <time>2022-10-02T11:53:52.900Z</time>
      </trkpt>
      <trkpt lat="43.10168" lon="6.32803">
        <ele>8.8</ele>
        <time>2022-10-02T11:54:22.075Z</time>
      </trkpt>
      <trkpt lat="43.10172" lon="6.32815">
        <ele>8.8</ele>
        <time>2022-10-02T11:54:37.514Z</time>
      </trkpt>
      <trkpt lat="43.10178" lon="6.32832">
        <ele>9</ele>
        <time>2022-10-02T11:55:02.999Z</time>
      </trkpt>
      <trkpt lat="43.10184" lon="6.32848">
        <ele>9.8</ele>
        <time>2022-10-02T11:55:42.644Z</time>
      </trkpt>
      <trkpt lat="43.10189" lon="6.32861">
        <ele>10.8</ele>
        <time>2022-10-02T11:56:24.589Z</time>
      </trkpt>
      <trkpt lat="43.10198" lon="6.32876">
        <ele>11.4</ele>
        <time>2022-10-02T11:57:01.699Z</time>
      </trkpt>
      <trkpt lat="43.10206" lon="6.32894">
        <ele>11.9</ele>
        <time>2022-10-02T11:57:36.815Z</time>
      </trkpt>
      <trkpt lat="43.10211" lon="6.32909">
        <ele>12.5</ele>
        <time>2022-10-02T11:58:10.523Z</time>
      </trkpt>
      <trkpt lat="43.10215" lon="6.32924">
        <ele>13.3</ele>
        <time>2022-10-02T11:58:47.742Z</time>
      </trkpt>
      <trkpt lat="43.10216" lon="6.32941">
        <ele>13.9</ele>
        <time>2022-10-02T11:59:22.233Z</time>
      </trkpt>
      <trkpt lat="43.10215" lon="6.32958">
        <ele>14.1</ele>
        <time>2022-10-02T11:59:45.637Z</time>
      </trkpt>
      <trkpt lat="43.10213" lon="6.32977">
        <ele>14.6</ele>
        <time>2022-10-02T12:00:19.008Z</time>
      </trkpt>
      <trkpt lat="43.10212" lon="6.32992">
        <ele>15.3</ele>
        <time>2022-10-02T12:00:52.860Z</time>
      </trkpt>
      <trkpt lat="43.10209" lon="6.33007">
        <ele>15.9</ele>
        <time>2022-10-02T12:01:25.290Z</time>
      </trkpt>
      <trkpt lat="43.10208" lon="6.3302">
        <ele>16</ele>
        <time>2022-10-02T12:01:42.213Z</time>
      </trkpt>
      <trkpt lat="43.10201" lon="6.33077">
        <ele>17.1</ele>
        <time>2022-10-02T12:03:11.077Z</time>
      </trkpt>
      <trkpt lat="43.10203" lon="6.33091">
        <ele>17.3</ele>
        <time>2022-10-02T12:03:31.336Z</time>
      </trkpt>
      <trkpt lat="43.10203" lon="6.33107">
        <ele>17.6</ele>
        <time>2022-10-02T12:03:55.821Z</time>
      </trkpt>
      <trkpt lat="43.10205" lon="6.33121">
        <ele>18.1</ele>
        <time>2022-10-02T12:04:24.638Z</time>
      </trkpt>
      <trkpt lat="43.10209" lon="6.33134">
        <ele>18.5</ele>
        <time>2022-10-02T12:04:50.264Z</time>
      </trkpt>
      <trkpt lat="43.10214" lon="6.33145">
        <ele>18.7</ele>
        <time>2022-10-02T12:05:09.070Z</time>
      </trkpt>
      <trkpt lat="43.10219" lon="6.33158">
        <ele>18.8</ele>
        <time>2022-10-02T12:05:27.872Z</time>
      </trkpt>
      <trkpt lat="43.10222" lon="6.33169">
        <ele>19.4</ele>
        <time>2022-10-02T12:05:55.523Z</time>
      </trkpt>
      <trkpt lat="43.10228" lon="6.33183">
        <ele>20.3</ele>
        <time>2022-10-02T12:06:35.544Z</time>
      </trkpt>
      <trkpt lat="43.10233" lon="6.33196">
        <ele>20.8</ele>
        <time>2022-10-02T12:07:04.959Z</time>
      </trkpt>
      <trkpt lat="43.10238" lon="6.3321">
        <ele>21.5</ele>
        <time>2022-10-02T12:07:39.455Z</time>
      </trkpt>
      <trkpt lat="43.10247" lon="6.33225">
        <ele>20.7</ele>
        <time>2022-10-02T12:07:43.456Z</time>
      </trkpt>
      <trkpt lat="43.10254" lon="6.33236">
        <ele>21.7</ele>
        <time>2022-10-02T12:08:25.359Z</time>
      </trkpt>
      <trkpt lat="43.10261" lon="6.33249">
        <ele>22.6</ele>
        <time>2022-10-02T12:09:05.301Z</time>
      </trkpt>
      <trkpt lat="43.10269" lon="6.3326">
        <ele>22.2</ele>
        <time>2022-10-02T12:09:09.173Z</time>
      </trkpt>
      <trkpt lat="43.10278" lon="6.33273">
        <ele>21.3</ele>
        <time>2022-10-02T12:09:12.889Z</time>
      </trkpt>
      <trkpt lat="43.10285" lon="6.33282">
        <ele>21.8</ele>
        <time>2022-10-02T12:09:40.171Z</time>
      </trkpt>
      <trkpt lat="43.10295" lon="6.3329">
        <ele>21.6</ele>
        <time>2022-10-02T12:09:44.989Z</time>
      </trkpt>
      <trkpt lat="43.10306" lon="6.33297">
        <ele>21.1</ele>
        <time>2022-10-02T12:09:48.901Z</time>
      </trkpt>
      <trkpt lat="43.10316" lon="6.33303">
        <ele>20.8</ele>
        <time>2022-10-02T12:09:52.944Z</time>
      </trkpt>
      <trkpt lat="43.10324" lon="6.33313">
        <ele>20.5</ele>
        <time>2022-10-02T12:09:56.945Z</time>
      </trkpt>
      <trkpt lat="43.10328" lon="6.33324">
        <ele>20.7</ele>
        <time>2022-10-02T12:10:15.017Z</time>
      </trkpt>
      <trkpt lat="43.10334" lon="6.33334">
        <ele>20.1</ele>
        <time>2022-10-02T12:10:17.537Z</time>
      </trkpt>
      <trkpt lat="43.10341" lon="6.33342">
        <ele>22.3</ele>
        <time>2022-10-02T12:11:13.905Z</time>
      </trkpt>
      <trkpt lat="43.10346" lon="6.33354">
        <ele>23.3</ele>
        <time>2022-10-02T12:11:55.601Z</time>
      </trkpt>
      <trkpt lat="43.10346" lon="6.33367">
        <ele>23.3</ele>
        <time>2022-10-02T12:12:10.816Z</time>
      </trkpt>
      <trkpt lat="43.10349" lon="6.33379">
        <ele>23.2</ele>
        <time>2022-10-02T12:12:14.997Z</time>
      </trkpt>
      <trkpt lat="43.10353" lon="6.33391">
        <ele>23.2</ele>
        <time>2022-10-02T12:12:30.435Z</time>
      </trkpt>
      <trkpt lat="43.10356" lon="6.33405">
        <ele>25.1</ele>
        <time>2022-10-02T12:13:36.299Z</time>
      </trkpt>
      <trkpt lat="43.1036" lon="6.33419">
        <ele>27.1</ele>
        <time>2022-10-02T12:14:44.163Z</time>
      </trkpt>
      <trkpt lat="43.10367" lon="6.33429">
        <ele>27.7</ele>
        <time>2022-10-02T12:15:14.357Z</time>
      </trkpt>
      <trkpt lat="43.10374" lon="6.33441">
        <ele>29.1</ele>
        <time>2022-10-02T12:16:16.032Z</time>
      </trkpt>
      <trkpt lat="43.10383" lon="6.33452">
        <ele>30.6</ele>
        <time>2022-10-02T12:17:21.958Z</time>
      </trkpt>
      <trkpt lat="43.1039" lon="6.33463">
        <ele>32.6</ele>
        <time>2022-10-02T12:18:27.827Z</time>
      </trkpt>
      <trkpt lat="43.10395" lon="6.33472">
        <ele>34.2</ele>
        <time>2022-10-02T12:19:18.878Z</time>
      </trkpt>
      <trkpt lat="43.10402" lon="6.33482">
        <ele>35.9</ele>
        <time>2022-10-02T12:20:21.414Z</time>
      </trkpt>
      <trkpt lat="43.1041" lon="6.33492">
        <ele>38</ele>
        <time>2022-10-02T12:21:28.379Z</time>
      </trkpt>
      <trkpt lat="43.10415" lon="6.33502">
        <ele>40.1</ele>
        <time>2022-10-02T12:22:23.090Z</time>
      </trkpt>
      <trkpt lat="43.10422" lon="6.33512">
        <ele>41.5</ele>
        <time>2022-10-02T12:23:25.627Z</time>
      </trkpt>
      <trkpt lat="43.10428" lon="6.33521">
        <ele>42.9</ele>
        <time>2022-10-02T12:24:20.642Z</time>
      </trkpt>
      <trkpt lat="43.10434" lon="6.3353">
        <ele>44.4</ele>
        <time>2022-10-02T12:25:15.657Z</time>
      </trkpt>
      <trkpt lat="43.10438" lon="6.33541">
        <ele>46.6</ele>
        <time>2022-10-02T12:26:11.130Z</time>
      </trkpt>
      <trkpt lat="43.10446" lon="6.3355">
        <ele>48.8</ele>
        <time>2022-10-02T12:27:15.138Z</time>
      </trkpt>
      <trkpt lat="43.10452" lon="6.33558">
        <ele>50.6</ele>
        <time>2022-10-02T12:28:06.909Z</time>
      </trkpt>
      <trkpt lat="43.10459" lon="6.3357">
        <ele>53.6</ele>
        <time>2022-10-02T12:29:16.244Z</time>
      </trkpt>
      <trkpt lat="43.10465" lon="6.33579">
        <ele>55.9</ele>
        <time>2022-10-02T12:30:11.260Z</time>
      </trkpt>
      <trkpt lat="43.10472" lon="6.33588">
        <ele>58.1</ele>
        <time>2022-10-02T12:31:10.620Z</time>
      </trkpt>
      <trkpt lat="43.10479" lon="6.33596">
        <ele>59.7</ele>
        <time>2022-10-02T12:32:06.986Z</time>
      </trkpt>
      <trkpt lat="43.10482" lon="6.33602">
        <ele>60.9</ele>
        <time>2022-10-02T12:32:39.813Z</time>
      </trkpt>
      <trkpt lat="43.10487" lon="6.3361">
        <ele>62.6</ele>
        <time>2022-10-02T12:33:27.350Z</time>
      </trkpt>
      <trkpt lat="43.10495" lon="6.33625">
        <ele>65.5</ele>
        <time>2022-10-02T12:34:51.202Z</time>
      </trkpt>
      <trkpt lat="43.10502" lon="6.33633">
        <ele>66.5</ele>
        <time>2022-10-02T12:35:33.166Z</time>
      </trkpt>
      <trkpt lat="43.10507" lon="6.3364">
        <ele>67.8</ele>
        <time>2022-10-02T12:36:17.372Z</time>
      </trkpt>
      <trkpt lat="43.10514" lon="6.33651">
        <ele>70.5</ele>
        <time>2022-10-02T12:37:23.240Z</time>
      </trkpt>
      <trkpt lat="43.10515" lon="6.33649">
        <ele>70</ele>
        <time>2022-10-02T12:37:23.743Z</time>
      </trkpt>
      <trkpt lat="43.10521" lon="6.33662">
        <ele>73.7</ele>
        <time>2022-10-02T12:38:33.167Z</time>
      </trkpt>
      <trkpt lat="43.1053" lon="6.33666">
        <ele>74.7</ele>
        <time>2022-10-02T12:39:14.923Z</time>
      </trkpt>
      <trkpt lat="43.10538" lon="6.33674">
        <ele>76.2</ele>
        <time>2022-10-02T12:40:16.165Z</time>
      </trkpt>
      <trkpt lat="43.10548" lon="6.33681">
        <ele>78</ele>
        <time>2022-10-02T12:41:25.598Z</time>
      </trkpt>
      <trkpt lat="43.10557" lon="6.33691">
        <ele>80.9</ele>
        <time>2022-10-02T12:42:37.250Z</time>
      </trkpt>
      <trkpt lat="43.10566" lon="6.33698">
        <ele>82.2</ele>
        <time>2022-10-02T12:43:34.736Z</time>
      </trkpt>
      <trkpt lat="43.10574" lon="6.33705">
        <ele>84.1</ele>
        <time>2022-10-02T12:44:33.430Z</time>
      </trkpt>
      <trkpt lat="43.10581" lon="6.33713">
        <ele>86.1</ele>
        <time>2022-10-02T12:45:29.796Z</time>
      </trkpt>
      <trkpt lat="43.10589" lon="6.33723">
        <ele>88.8</ele>
        <time>2022-10-02T12:46:36.759Z</time>
      </trkpt>
      <trkpt lat="43.10598" lon="6.3373">
        <ele>90.1</ele>
        <time>2022-10-02T12:47:34.246Z</time>
      </trkpt>
      <trkpt lat="43.10608" lon="6.33739">
        <ele>91.9</ele>
        <time>2022-10-02T12:48:48.226Z</time>
      </trkpt>
      <trkpt lat="43.10616" lon="6.33747">
        <ele>94.2</ele>
        <time>2022-10-02T12:49:49.467Z</time>
      </trkpt>
      <trkpt lat="43.10624" lon="6.33751">
        <ele>95.9</ele>
        <time>2022-10-02T12:50:42.122Z</time>
      </trkpt>
      <trkpt lat="43.10632" lon="6.33756">
        <ele>97.4</ele>
        <time>2022-10-02T12:51:36.490Z</time>
      </trkpt>
      <trkpt lat="43.10642" lon="6.33761">
        <ele>99.5</ele>
        <time>2022-10-02T12:52:42.308Z</time>
      </trkpt>
      <trkpt lat="43.10651" lon="6.33765">
        <ele>101.7</ele>
        <time>2022-10-02T12:53:40.809Z</time>
      </trkpt>
      <trkpt lat="43.1066" lon="6.33767">
        <ele>103.3</ele>
        <time>2022-10-02T12:54:37.181Z</time>
      </trkpt>
      <trkpt lat="43.10669" lon="6.3377">
        <ele>105.4</ele>
        <time>2022-10-02T12:55:34.450Z</time>
      </trkpt>
      <trkpt lat="43.10679" lon="6.33769">
        <ele>107.3</ele>
        <time>2022-10-02T12:56:36.442Z</time>
      </trkpt>
      <trkpt lat="43.10688" lon="6.3377">
        <ele>109.6</ele>
        <time>2022-10-02T12:57:32.269Z</time>
      </trkpt>
      <trkpt lat="43.10697" lon="6.3377">
        <ele>111.8</ele>
        <time>2022-10-02T12:58:27.914Z</time>
      </trkpt>
      <trkpt lat="43.10707" lon="6.33775">
        <ele>114.2</ele>
        <time>2022-10-02T12:59:33.732Z</time>
      </trkpt>
      <trkpt lat="43.10717" lon="6.33776">
        <ele>115.9</ele>
        <time>2022-10-02T13:00:35.724Z</time>
      </trkpt>
      <trkpt lat="43.10727" lon="6.33779">
        <ele>117.7</ele>
        <time>2022-10-02T13:01:39.017Z</time>
      </trkpt>
      <trkpt lat="43.10735" lon="6.33782">
        <ele>119.2</ele>
        <time>2022-10-02T13:02:30.299Z</time>
      </trkpt>
      <trkpt lat="43.10744" lon="6.33785">
        <ele>120.8</ele>
        <time>2022-10-02T13:03:27.568Z</time>
      </trkpt>
      <trkpt lat="43.10752" lon="6.33791">
        <ele>123.2</ele>
        <time>2022-10-02T13:04:23.959Z</time>
      </trkpt>
      <trkpt lat="43.10761" lon="6.33793">
        <ele>125.2</ele>
        <time>2022-10-02T13:05:20.331Z</time>
      </trkpt>
      <trkpt lat="43.10769" lon="6.33799">
        <ele>127.6</ele>
        <time>2022-10-02T13:06:16.723Z</time>
      </trkpt>
      <trkpt lat="43.10778" lon="6.338">
        <ele>129.3</ele>
        <time>2022-10-02T13:07:12.550Z</time>
      </trkpt>
      <trkpt lat="43.10787" lon="6.33798">
        <ele>131.6</ele>
        <time>2022-10-02T13:08:08.922Z</time>
      </trkpt>
      <trkpt lat="43.10795" lon="6.33794">
        <ele>133.3</ele>
        <time>2022-10-02T13:09:01.577Z</time>
      </trkpt>
      <trkpt lat="43.10802" lon="6.33789">
        <ele>135.1</ele>
        <time>2022-10-02T13:09:50.387Z</time>
      </trkpt>
      <trkpt lat="43.10809" lon="6.33781">
        <ele>136.9</ele>
        <time>2022-10-02T13:10:46.752Z</time>
      </trkpt>
      <trkpt lat="43.10812" lon="6.33778">
        <ele>137.2</ele>
        <time>2022-10-02T13:10:59.792Z</time>
      </trkpt>
      <trkpt lat="43.10823" lon="6.33774">
        <ele>138.4</ele>
        <time>2022-10-02T13:11:49.888Z</time>
      </trkpt>
      <trkpt lat="43.10832" lon="6.3377">
        <ele>139.1</ele>
        <time>2022-10-02T13:12:21.352Z</time>
      </trkpt>
      <trkpt lat="43.10842" lon="6.33768">
        <ele>139.5</ele>
        <time>2022-10-02T13:12:46.764Z</time>
      </trkpt>
      <trkpt lat="43.10851" lon="6.33769">
        <ele>140.5</ele>
        <time>2022-10-02T13:13:28.806Z</time>
      </trkpt>
      <trkpt lat="43.1086" lon="6.33774">
        <ele>142.6</ele>
        <time>2022-10-02T13:14:28.853Z</time>
      </trkpt>
      <trkpt lat="43.10869" lon="6.3378">
        <ele>143.9</ele>
        <time>2022-10-02T13:15:27.714Z</time>
      </trkpt>
      <trkpt lat="43.10874" lon="6.3379">
        <ele>145.8</ele>
        <time>2022-10-02T13:16:22.423Z</time>
      </trkpt>
      <trkpt lat="43.10877" lon="6.33799">
        <ele>147.5</ele>
        <time>2022-10-02T13:17:07.081Z</time>
      </trkpt>
      <trkpt lat="43.10881" lon="6.3381">
        <ele>149.8</ele>
        <time>2022-10-02T13:18:02.550Z</time>
      </trkpt>
      <trkpt lat="43.10882" lon="6.33822">
        <ele>151.9</ele>
        <time>2022-10-02T13:18:57.067Z</time>
      </trkpt>
      <trkpt lat="43.10883" lon="6.33837">
        <ele>154.3</ele>
        <time>2022-10-02T13:20:05.055Z</time>
      </trkpt>
      <trkpt lat="43.10884" lon="6.3385">
        <ele>156</ele>
        <time>2022-10-02T13:21:04.059Z</time>
      </trkpt>
      <trkpt lat="43.10892" lon="6.33861">
        <ele>158.3</ele>
        <time>2022-10-02T13:22:14.143Z</time>
      </trkpt>
      <trkpt lat="43.10901" lon="6.33872">
        <ele>160.1</ele>
        <time>2022-10-02T13:23:28.718Z</time>
      </trkpt>
      <trkpt lat="43.10913" lon="6.33881">
        <ele>162</ele>
        <time>2022-10-02T13:24:53.305Z</time>
      </trkpt>
      <trkpt lat="43.10922" lon="6.33885">
        <ele>163.7</ele>
        <time>2022-10-02T13:25:51.805Z</time>
      </trkpt>
      <trkpt lat="43.10931" lon="6.33881">
        <ele>165.1</ele>
        <time>2022-10-02T13:26:50.306Z</time>
      </trkpt>
      <trkpt lat="43.10935" lon="6.33878">
        <ele>165.5</ele>
        <time>2022-10-02T13:27:07.283Z</time>
      </trkpt>
      <trkpt lat="43.10945" lon="6.33874">
        <ele>167.1</ele>
        <time>2022-10-02T13:28:11.692Z</time>
      </trkpt>
      <trkpt lat="43.10951" lon="6.33866">
        <ele>167.6</ele>
        <time>2022-10-02T13:28:36.756Z</time>
      </trkpt>
      <trkpt lat="43.10955" lon="6.33857">
        <ele>167.7</ele>
        <time>2022-10-02T13:28:50.753Z</time>
      </trkpt>
      <trkpt lat="43.10962" lon="6.33849">
        <ele>168.2</ele>
        <time>2022-10-02T13:29:17.143Z</time>
      </trkpt>
      <trkpt lat="43.10969" lon="6.33836">
        <ele>168.6</ele>
        <time>2022-10-02T13:29:44.566Z</time>
      </trkpt>
      <trkpt lat="43.10977" lon="6.33828">
        <ele>168.7</ele>
        <time>2022-10-02T13:30:02.061Z</time>
      </trkpt>
      <trkpt lat="43.10985" lon="6.3382">
        <ele>168.8</ele>
        <time>2022-10-02T13:30:19.556Z</time>
      </trkpt>
      <trkpt lat="43.10992" lon="6.33814">
        <ele>169.4</ele>
        <time>2022-10-02T13:30:46.736Z</time>
      </trkpt>
      <trkpt lat="43.11" lon="6.33805">
        <ele>169.9</ele>
        <time>2022-10-02T13:31:15.432Z</time>
      </trkpt>
      <trkpt lat="43.11007" lon="6.33795">
        <ele>169.8</ele>
        <time>2022-10-02T13:31:20.054Z</time>
      </trkpt>
      <trkpt lat="43.11014" lon="6.33787">
        <ele>169.6</ele>
        <time>2022-10-02T13:31:23.644Z</time>
      </trkpt>
      <trkpt lat="43.11022" lon="6.33776">
        <ele>169.4</ele>
        <time>2022-10-02T13:31:28.339Z</time>
      </trkpt>
      <trkpt lat="43.11029" lon="6.33768">
        <ele>169.4</ele>
        <time>2022-10-02T13:31:42.952Z</time>
      </trkpt>
      <trkpt lat="43.11035" lon="6.33757">
        <ele>168.9</ele>
        <time>2022-10-02T13:31:45.942Z</time>
      </trkpt>
      <trkpt lat="43.11036" lon="6.33748">
        <ele>168.1</ele>
        <time>2022-10-02T13:31:47.830Z</time>
      </trkpt>
      <trkpt lat="43.11039" lon="6.33733">
        <ele>166.5</ele>
        <time>2022-10-02T13:31:51.057Z</time>
      </trkpt>
      <trkpt lat="43.11043" lon="6.33721">
        <ele>165.4</ele>
        <time>2022-10-02T13:31:53.793Z</time>
      </trkpt>
      <trkpt lat="43.11047" lon="6.33712">
        <ele>165</ele>
        <time>2022-10-02T13:31:56.046Z</time>
      </trkpt>
      <trkpt lat="43.11054" lon="6.33701">
        <ele>164.4</ele>
        <time>2022-10-02T13:31:59.055Z</time>
      </trkpt>
      <trkpt lat="43.11059" lon="6.3369">
        <ele>163.3</ele>
        <time>2022-10-02T13:32:01.743Z</time>
      </trkpt>
      <trkpt lat="43.11066" lon="6.33679">
        <ele>162.1</ele>
        <time>2022-10-02T13:32:04.770Z</time>
      </trkpt>
      <trkpt lat="43.11071" lon="6.33666">
        <ele>161.3</ele>
        <time>2022-10-02T13:32:07.818Z</time>
      </trkpt>
      <trkpt lat="43.11073" lon="6.33657">
        <ele>161.1</ele>
        <time>2022-10-02T13:32:10.317Z</time>
      </trkpt>
      <trkpt lat="43.11076" lon="6.33641">
        <ele>161</ele>
        <time>2022-10-02T13:32:15.947Z</time>
      </trkpt>
      <trkpt lat="43.11083" lon="6.33626">
        <ele>161</ele>
        <time>2022-10-02T13:32:36.780Z</time>
      </trkpt>
      <trkpt lat="43.11088" lon="6.33615">
        <ele>160.6</ele>
        <time>2022-10-02T13:32:39.800Z</time>
      </trkpt>
      <trkpt lat="43.11091" lon="6.33608">
        <ele>160.4</ele>
        <time>2022-10-02T13:32:41.856Z</time>
      </trkpt>
      <trkpt lat="43.11096" lon="6.33601">
        <ele>160.2</ele>
        <time>2022-10-02T13:32:44.489Z</time>
      </trkpt>
      <trkpt lat="43.11101" lon="6.33591">
        <ele>160.4</ele>
        <time>2022-10-02T13:33:02.376Z</time>
      </trkpt>
      <trkpt lat="43.11108" lon="6.33579">
        <ele>161</ele>
        <time>2022-10-02T13:33:34.544Z</time>
      </trkpt>
      <trkpt lat="43.11112" lon="6.33568">
        <ele>161.5</ele>
        <time>2022-10-02T13:34:00.671Z</time>
      </trkpt>
      <trkpt lat="43.11118" lon="6.33558">
        <ele>161.9</ele>
        <time>2022-10-02T13:34:25.410Z</time>
      </trkpt>
      <trkpt lat="43.11126" lon="6.33549">
        <ele>162.4</ele>
        <time>2022-10-02T13:34:54.106Z</time>
      </trkpt>
      <trkpt lat="43.11134" lon="6.33541">
        <ele>163</ele>
        <time>2022-10-02T13:35:23.934Z</time>
      </trkpt>
      <trkpt lat="43.11142" lon="6.33533">
        <ele>163.7</ele>
        <time>2022-10-02T13:35:56.045Z</time>
      </trkpt>
      <trkpt lat="43.11149" lon="6.33525">
        <ele>164.3</ele>
        <time>2022-10-02T13:36:24.551Z</time>
      </trkpt>
      <trkpt lat="43.11156" lon="6.33516">
        <ele>164.5</ele>
        <time>2022-10-02T13:36:43.569Z</time>
      </trkpt>
      <trkpt lat="43.11165" lon="6.33508">
        <ele>164.9</ele>
        <time>2022-10-02T13:37:09.685Z</time>
      </trkpt>
      <trkpt lat="43.11172" lon="6.335">
        <ele>165.2</ele>
        <time>2022-10-02T13:37:30.603Z</time>
      </trkpt>
      <trkpt lat="43.11181" lon="6.33492">
        <ele>165.1</ele>
        <time>2022-10-02T13:37:35.543Z</time>
      </trkpt>
      <trkpt lat="43.11188" lon="6.33481">
        <ele>165.3</ele>
        <time>2022-10-02T13:37:56.166Z</time>
      </trkpt>
      <trkpt lat="43.11196" lon="6.3347">
        <ele>165.9</ele>
        <time>2022-10-02T13:38:28.558Z</time>
      </trkpt>
      <trkpt lat="43.11206" lon="6.33462">
        <ele>166.4</ele>
        <time>2022-10-02T13:38:59.265Z</time>
      </trkpt>
      <trkpt lat="43.11215" lon="6.33453">
        <ele>167.9</ele>
        <time>2022-10-02T13:40:08.159Z</time>
      </trkpt>
      <trkpt lat="43.11222" lon="6.33445">
        <ele>169.9</ele>
        <time>2022-10-02T13:41:04.523Z</time>
      </trkpt>
      <trkpt lat="43.1123" lon="6.33437">
        <ele>170.2</ele>
        <time>2022-10-02T13:41:26.496Z</time>
      </trkpt>
      <trkpt lat="43.11238" lon="6.3343">
        <ele>171.2</ele>
        <time>2022-10-02T13:42:08.239Z</time>
      </trkpt>
      <trkpt lat="43.11244" lon="6.33423">
        <ele>173</ele>
        <time>2022-10-02T13:42:56.967Z</time>
      </trkpt>
      <trkpt lat="43.1125" lon="6.33413">
        <ele>175.1</ele>
        <time>2022-10-02T13:43:55.390Z</time>
      </trkpt>
      <trkpt lat="43.11256" lon="6.334">
        <ele>175.3</ele>
        <time>2022-10-02T13:44:16.897Z</time>
      </trkpt>
      <trkpt lat="43.11259" lon="6.33388">
        <ele>176</ele>
        <time>2022-10-02T13:44:48.080Z</time>
      </trkpt>
      <trkpt lat="43.11261" lon="6.33374">
        <ele>176</ele>
        <time>2022-10-02T13:45:04.773Z</time>
      </trkpt>
      <trkpt lat="43.11262" lon="6.33361">
        <ele>176</ele>
        <time>2022-10-02T13:45:20.069Z</time>
      </trkpt>
      <trkpt lat="43.11262" lon="6.33347">
        <ele>176.4</ele>
        <time>2022-10-02T13:45:45.606Z</time>
      </trkpt>
      <trkpt lat="43.11262" lon="6.33334">
        <ele>176.7</ele>
        <time>2022-10-02T13:46:07.018Z</time>
      </trkpt>
      <trkpt lat="43.11262" lon="6.33322">
        <ele>177.7</ele>
        <time>2022-10-02T13:46:49.376Z</time>
      </trkpt>
      <trkpt lat="43.11262" lon="6.33308">
        <ele>178.9</ele>
        <time>2022-10-02T13:47:40.685Z</time>
      </trkpt>
      <trkpt lat="43.11264" lon="6.33294">
        <ele>179.8</ele>
        <time>2022-10-02T13:48:19.023Z</time>
      </trkpt>
      <trkpt lat="43.11266" lon="6.33282">
        <ele>180.8</ele>
        <time>2022-10-02T13:49:01.108Z</time>
      </trkpt>
      <trkpt lat="43.11268" lon="6.33268">
        <ele>181.7</ele>
        <time>2022-10-02T13:49:39.446Z</time>
      </trkpt>
      <trkpt lat="43.11272" lon="6.33255">
        <ele>183.3</ele>
        <time>2022-10-02T13:50:43.120Z</time>
      </trkpt>
      <trkpt lat="43.11279" lon="6.33242">
        <ele>184.2</ele>
        <time>2022-10-02T13:51:23.060Z</time>
      </trkpt>
      <trkpt lat="43.11285" lon="6.33232">
        <ele>183</ele>
        <time>2022-10-02T13:51:25.745Z</time>
      </trkpt>
      <trkpt lat="43.11289" lon="6.33224">
        <ele>182.6</ele>
        <time>2022-10-02T13:51:27.741Z</time>
      </trkpt>
      <trkpt lat="43.11289" lon="6.33222">
        <ele>182.6</ele>
        <time>2022-10-02T13:51:30.081Z</time>
      </trkpt>
      <trkpt lat="43.11296" lon="6.33214">
        <ele>181.4</ele>
        <time>2022-10-02T13:51:32.672Z</time>
      </trkpt>
      <trkpt lat="43.11303" lon="6.33206">
        <ele>180.4</ele>
        <time>2022-10-02T13:51:35.262Z</time>
      </trkpt>
      <trkpt lat="43.11311" lon="6.33201">
        <ele>178.7</ele>
        <time>2022-10-02T13:51:37.761Z</time>
      </trkpt>
      <trkpt lat="43.11318" lon="6.33194">
        <ele>177.1</ele>
        <time>2022-10-02T13:51:40.223Z</time>
      </trkpt>
      <trkpt lat="43.11326" lon="6.3319">
        <ele>175.3</ele>
        <time>2022-10-02T13:51:42.643Z</time>
      </trkpt>
      <trkpt lat="43.11334" lon="6.33186">
        <ele>173.6</ele>
        <time>2022-10-02T13:51:45.063Z</time>
      </trkpt>
      <trkpt lat="43.11342" lon="6.33181">
        <ele>171.6</ele>
        <time>2022-10-02T13:51:47.562Z</time>
      </trkpt>
      <trkpt lat="43.11351" lon="6.33176">
        <ele>169.5</ele>
        <time>2022-10-02T13:51:50.321Z</time>
      </trkpt>
      <trkpt lat="43.1136" lon="6.33171">
        <ele>167.7</ele>
        <time>2022-10-02T13:51:53.081Z</time>
      </trkpt>
      <trkpt lat="43.11369" lon="6.33165">
        <ele>166.3</ele>
        <time>2022-10-02T13:51:55.925Z</time>
      </trkpt>
      <trkpt lat="43.11377" lon="6.33158">
        <ele>165</ele>
        <time>2022-10-02T13:51:58.622Z</time>
      </trkpt>
      <trkpt lat="43.11386" lon="6.33152">
        <ele>164.5</ele>
        <time>2022-10-02T13:52:01.606Z</time>
      </trkpt>
      <trkpt lat="43.11394" lon="6.33148">
        <ele>164.1</ele>
        <time>2022-10-02T13:52:04.211Z</time>
      </trkpt>
      <trkpt lat="43.11403" lon="6.33144">
        <ele>163.9</ele>
        <time>2022-10-02T13:52:07.972Z</time>
      </trkpt>
      <trkpt lat="43.11412" lon="6.33142">
        <ele>163.8</ele>
        <time>2022-10-02T13:52:12.080Z</time>
      </trkpt>
      <trkpt lat="43.11421" lon="6.33139">
        <ele>164</ele>
        <time>2022-10-02T13:52:30.587Z</time>
      </trkpt>
      <trkpt lat="43.11431" lon="6.33136">
        <ele>163.9</ele>
        <time>2022-10-02T13:52:35.273Z</time>
      </trkpt>
      <trkpt lat="43.11441" lon="6.33132">
        <ele>163.9</ele>
        <time>2022-10-02T13:52:51.972Z</time>
      </trkpt>
      <trkpt lat="43.11451" lon="6.33131">
        <ele>164.3</ele>
        <time>2022-10-02T13:53:17.298Z</time>
      </trkpt>
      <trkpt lat="43.1146" lon="6.33129">
        <ele>164.8</ele>
        <time>2022-10-02T13:53:43.690Z</time>
      </trkpt>
      <trkpt lat="43.1147" lon="6.33128">
        <ele>165.3</ele>
        <time>2022-10-02T13:54:11.769Z</time>
      </trkpt>
      <trkpt lat="43.11479" lon="6.33126">
        <ele>166</ele>
        <time>2022-10-02T13:54:42.761Z</time>
      </trkpt>
      <trkpt lat="43.1149" lon="6.33125">
        <ele>166.8</ele>
        <time>2022-10-02T13:55:19.021Z</time>
      </trkpt>
      <trkpt lat="43.115" lon="6.33124">
        <ele>167.5</ele>
        <time>2022-10-02T13:55:51.317Z</time>
      </trkpt>
      <trkpt lat="43.11509" lon="6.33121">
        <ele>168</ele>
        <time>2022-10-02T13:56:17.973Z</time>
      </trkpt>
      <trkpt lat="43.11517" lon="6.33113">
        <ele>168.6</ele>
        <time>2022-10-02T13:56:47.802Z</time>
      </trkpt>
      <trkpt lat="43.11524" lon="6.33101">
        <ele>168.9</ele>
        <time>2022-10-02T13:57:11.610Z</time>
      </trkpt>
      <trkpt lat="43.11525" lon="6.33088">
        <ele>168.9</ele>
        <time>2022-10-02T13:57:26.906Z</time>
      </trkpt>
      <trkpt lat="43.11524" lon="6.33075">
        <ele>168</ele>
        <time>2022-10-02T13:57:29.617Z</time>
      </trkpt>
      <trkpt lat="43.11522" lon="6.33062">
        <ele>166.5</ele>
        <time>2022-10-02T13:57:32.373Z</time>
      </trkpt>
      <trkpt lat="43.11518" lon="6.33051">
        <ele>164.8</ele>
        <time>2022-10-02T13:57:34.922Z</time>
      </trkpt>
      <trkpt lat="43.11515" lon="6.33038">
        <ele>162.6</ele>
        <time>2022-10-02T13:57:37.750Z</time>
      </trkpt>
      <trkpt lat="43.11515" lon="6.33026">
        <ele>160.6</ele>
        <time>2022-10-02T13:57:40.239Z</time>
      </trkpt>
      <trkpt lat="43.11515" lon="6.33013">
        <ele>158.5</ele>
        <time>2022-10-02T13:57:42.935Z</time>
      </trkpt>
      <trkpt lat="43.11516" lon="6.33011">
        <ele>158.2</ele>
        <time>2022-10-02T13:57:43.438Z</time>
      </trkpt>
      <trkpt lat="43.11516" lon="6.32999">
        <ele>156.3</ele>
        <time>2022-10-02T13:57:45.927Z</time>
      </trkpt>
      <trkpt lat="43.11515" lon="6.32984">
        <ele>153.6</ele>
        <time>2022-10-02T13:57:49.052Z</time>
      </trkpt>
      <trkpt lat="43.11515" lon="6.32972">
        <ele>151.4</ele>
        <time>2022-10-02T13:57:51.541Z</time>
      </trkpt>
      <trkpt lat="43.11514" lon="6.32961">
        <ele>149.7</ele>
        <time>2022-10-02T13:57:53.840Z</time>
      </trkpt>
      <trkpt lat="43.11514" lon="6.32949">
        <ele>147.7</ele>
        <time>2022-10-02T13:57:56.329Z</time>
      </trkpt>
      <trkpt lat="43.11514" lon="6.32936">
        <ele>145.6</ele>
        <time>2022-10-02T13:57:59.025Z</time>
      </trkpt>
      <trkpt lat="43.11515" lon="6.32923">
        <ele>143.6</ele>
        <time>2022-10-02T13:58:01.737Z</time>
      </trkpt>
      <trkpt lat="43.11514" lon="6.32911">
        <ele>141.5</ele>
        <time>2022-10-02T13:58:04.242Z</time>
      </trkpt>
      <trkpt lat="43.11514" lon="6.329">
        <ele>139.6</ele>
        <time>2022-10-02T13:58:06.524Z</time>
      </trkpt>
      <trkpt lat="43.11512" lon="6.32889">
        <ele>137.6</ele>
        <time>2022-10-02T13:58:08.875Z</time>
      </trkpt>
      <trkpt lat="43.1151" lon="6.32876">
        <ele>135.4</ele>
        <time>2022-10-02T13:58:11.631Z</time>
      </trkpt>
      <trkpt lat="43.11508" lon="6.32865">
        <ele>133.4</ele>
        <time>2022-10-02T13:58:13.982Z</time>
      </trkpt>
      <trkpt lat="43.11508" lon="6.32851">
        <ele>131.2</ele>
        <time>2022-10-02T13:58:16.886Z</time>
      </trkpt>
      <trkpt lat="43.11506" lon="6.32837">
        <ele>129.1</ele>
        <time>2022-10-02T13:58:19.845Z</time>
      </trkpt>
      <trkpt lat="43.11505" lon="6.32825">
        <ele>127.7</ele>
        <time>2022-10-02T13:58:22.350Z</time>
      </trkpt>
      <trkpt lat="43.11504" lon="6.32813">
        <ele>126.3</ele>
        <time>2022-10-02T13:58:24.855Z</time>
      </trkpt>
      <trkpt lat="43.11505" lon="6.32801">
        <ele>125.2</ele>
        <time>2022-10-02T13:58:27.361Z</time>
      </trkpt>
      <trkpt lat="43.11506" lon="6.32789">
        <ele>124.7</ele>
        <time>2022-10-02T13:58:29.843Z</time>
      </trkpt>
      <trkpt lat="43.11507" lon="6.32778">
        <ele>124.2</ele>
        <time>2022-10-02T13:58:32.030Z</time>
      </trkpt>
      <trkpt lat="43.11507" lon="6.32779">
        <ele>124.3</ele>
        <time>2022-10-02T13:58:36.543Z</time>
      </trkpt>
      <trkpt lat="43.11511" lon="6.32773">
        <ele>124.1</ele>
        <time>2022-10-02T13:58:38.601Z</time>
      </trkpt>
      <trkpt lat="43.11515" lon="6.3276">
        <ele>124.8</ele>
        <time>2022-10-02T13:59:11.318Z</time>
      </trkpt>
      <trkpt lat="43.11519" lon="6.32748">
        <ele>126</ele>
        <time>2022-10-02T14:00:04.125Z</time>
      </trkpt>
      <trkpt lat="43.11526" lon="6.32738">
        <ele>127.6</ele>
        <time>2022-10-02T14:01:06.655Z</time>
      </trkpt>
      <trkpt lat="43.11534" lon="6.3273">
        <ele>127.7</ele>
        <time>2022-10-02T14:01:24.150Z</time>
      </trkpt>
      <trkpt lat="43.11542" lon="6.32723">
        <ele>127.3</ele>
        <time>2022-10-02T14:01:27.185Z</time>
      </trkpt>
      <trkpt lat="43.1155" lon="6.32718">
        <ele>127</ele>
        <time>2022-10-02T14:01:30.223Z</time>
      </trkpt>
      <trkpt lat="43.11559" lon="6.32712">
        <ele>127.4</ele>
        <time>2022-10-02T14:01:55.532Z</time>
      </trkpt>
      <trkpt lat="43.11568" lon="6.32707">
        <ele>128.2</ele>
        <time>2022-10-02T14:02:30.081Z</time>
      </trkpt>
      <trkpt lat="43.11578" lon="6.32707">
        <ele>127.7</ele>
        <time>2022-10-02T14:02:33.060Z</time>
      </trkpt>
      <trkpt lat="43.11588" lon="6.32708">
        <ele>126.3</ele>
        <time>2022-10-02T14:02:35.909Z</time>
      </trkpt>
      <trkpt lat="43.11598" lon="6.32706">
        <ele>125.9</ele>
        <time>2022-10-02T14:02:39.219Z</time>
      </trkpt>
      <trkpt lat="43.11608" lon="6.32702">
        <ele>126</ele>
        <time>2022-10-02T14:02:57.528Z</time>
      </trkpt>
      <trkpt lat="43.11615" lon="6.32696">
        <ele>126.6</ele>
        <time>2022-10-02T14:03:24.707Z</time>
      </trkpt>
      <trkpt lat="43.11624" lon="6.3269">
        <ele>126</ele>
        <time>2022-10-02T14:03:27.453Z</time>
      </trkpt>
      <trkpt lat="43.11634" lon="6.32686">
        <ele>124.8</ele>
        <time>2022-10-02T14:03:30.413Z</time>
      </trkpt>
      <trkpt lat="43.1164" lon="6.32676">
        <ele>125.3</ele>
        <time>2022-10-02T14:03:57.413Z</time>
      </trkpt>
      <trkpt lat="43.11648" lon="6.32666">
        <ele>126.3</ele>
        <time>2022-10-02T14:04:39.419Z</time>
      </trkpt>
      <trkpt lat="43.11656" lon="6.3266">
        <ele>125.3</ele>
        <time>2022-10-02T14:04:42.011Z</time>
      </trkpt>
      <trkpt lat="43.11666" lon="6.32659">
        <ele>124.5</ele>
        <time>2022-10-02T14:04:44.860Z</time>
      </trkpt>
      <trkpt lat="43.11676" lon="6.32659">
        <ele>124.4</ele>
        <time>2022-10-02T14:04:49.423Z</time>
      </trkpt>
      <trkpt lat="43.11686" lon="6.32659">
        <ele>124.5</ele>
        <time>2022-10-02T14:05:07.068Z</time>
      </trkpt>
      <trkpt lat="43.11695" lon="6.3266">
        <ele>124.6</ele>
        <time>2022-10-02T14:05:23.176Z</time>
      </trkpt>
      <trkpt lat="43.11705" lon="6.32662">
        <ele>125.1</ele>
        <time>2022-10-02T14:05:51.405Z</time>
      </trkpt>
      <trkpt lat="43.11715" lon="6.32662">
        <ele>125.5</ele>
        <time>2022-10-02T14:06:16.703Z</time>
      </trkpt>
      <trkpt lat="43.11725" lon="6.32661">
        <ele>125.7</ele>
        <time>2022-10-02T14:06:36.368Z</time>
      </trkpt>
      <trkpt lat="43.11735" lon="6.32663">
        <ele>125.4</ele>
        <time>2022-10-02T14:06:40.023Z</time>
      </trkpt>
      <trkpt lat="43.11744" lon="6.32664">
        <ele>125.1</ele>
        <time>2022-10-02T14:06:43.172Z</time>
      </trkpt>
      <trkpt lat="43.11754" lon="6.32665">
        <ele>125.1</ele>
        <time>2022-10-02T14:06:59.244Z</time>
      </trkpt>
      <trkpt lat="43.11764" lon="6.32666">
        <ele>125.5</ele>
        <time>2022-10-02T14:07:24.570Z</time>
      </trkpt>
      <trkpt lat="43.11775" lon="6.32666">
        <ele>125.8</ele>
        <time>2022-10-02T14:07:48.074Z</time>
      </trkpt>
      <trkpt lat="43.11784" lon="6.32666">
        <ele>125.5</ele>
        <time>2022-10-02T14:07:51.209Z</time>
      </trkpt>
      <trkpt lat="43.11793" lon="6.32667">
        <ele>124.9</ele>
        <time>2022-10-02T14:07:53.563Z</time>
      </trkpt>
      <trkpt lat="43.11804" lon="6.32665">
        <ele>124</ele>
        <time>2022-10-02T14:07:56.716Z</time>
      </trkpt>
      <trkpt lat="43.11813" lon="6.32667">
        <ele>124.3</ele>
        <time>2022-10-02T14:08:17.636Z</time>
      </trkpt>
      <trkpt lat="43.11822" lon="6.32667">
        <ele>124.6</ele>
        <time>2022-10-02T14:08:38.403Z</time>
      </trkpt>
      <trkpt lat="43.11832" lon="6.32667">
        <ele>124.9</ele>
        <time>2022-10-02T14:09:00.507Z</time>
      </trkpt>
      <trkpt lat="43.11841" lon="6.32665">
        <ele>124.6</ele>
        <time>2022-10-02T14:09:03.696Z</time>
      </trkpt>
      <trkpt lat="43.11851" lon="6.32664">
        <ele>124.2</ele>
        <time>2022-10-02T14:09:06.971Z</time>
      </trkpt>
      <trkpt lat="43.1186" lon="6.32666">
        <ele>124</ele>
        <time>2022-10-02T14:09:10.561Z</time>
      </trkpt>
      <trkpt lat="43.11869" lon="6.32667">
        <ele>122.7</ele>
        <time>2022-10-02T14:09:13.127Z</time>
      </trkpt>
      <trkpt lat="43.11878" lon="6.3267">
        <ele>120.9</ele>
        <time>2022-10-02T14:09:15.759Z</time>
      </trkpt>
      <trkpt lat="43.11888" lon="6.32673">
        <ele>119.2</ele>
        <time>2022-10-02T14:09:18.668Z</time>
      </trkpt>
      <trkpt lat="43.11897" lon="6.32676">
        <ele>117.6</ele>
        <time>2022-10-02T14:09:21.300Z</time>
      </trkpt>
      <trkpt lat="43.11907" lon="6.32679">
        <ele>116</ele>
        <time>2022-10-02T14:09:24.209Z</time>
      </trkpt>
      <trkpt lat="43.11915" lon="6.32682">
        <ele>114.5</ele>
        <time>2022-10-02T14:09:26.565Z</time>
      </trkpt>
      <trkpt lat="43.11923" lon="6.32685">
        <ele>113.3</ele>
        <time>2022-10-02T14:09:28.922Z</time>
      </trkpt>
      <trkpt lat="43.11932" lon="6.32688">
        <ele>112</ele>
        <time>2022-10-02T14:09:31.554Z</time>
      </trkpt>
      <trkpt lat="43.11941" lon="6.32691">
        <ele>110.8</ele>
        <time>2022-10-02T14:09:34.186Z</time>
      </trkpt>
      <trkpt lat="43.11951" lon="6.32691">
        <ele>109.8</ele>
        <time>2022-10-02T14:09:37.027Z</time>
      </trkpt>
      <trkpt lat="43.1196" lon="6.32694">
        <ele>108.9</ele>
        <time>2022-10-02T14:09:39.659Z</time>
      </trkpt>
      <trkpt lat="43.11969" lon="6.32697">
        <ele>107.9</ele>
        <time>2022-10-02T14:09:42.291Z</time>
      </trkpt>
      <trkpt lat="43.11978" lon="6.32702">
        <ele>107.2</ele>
        <time>2022-10-02T14:09:45.051Z</time>
      </trkpt>
      <trkpt lat="43.11986" lon="6.3271">
        <ele>107</ele>
        <time>2022-10-02T14:09:49.031Z</time>
      </trkpt>
      <trkpt lat="43.11995" lon="6.32716">
        <ele>107.4</ele>
        <time>2022-10-02T14:10:14.339Z</time>
      </trkpt>
      <trkpt lat="43.12004" lon="6.32723">
        <ele>107.8</ele>
        <time>2022-10-02T14:10:40.020Z</time>
      </trkpt>
      <trkpt lat="43.12011" lon="6.32732">
        <ele>107.8</ele>
        <time>2022-10-02T14:10:55.408Z</time>
      </trkpt>
      <trkpt lat="43.12017" lon="6.32742">
        <ele>108.5</ele>
        <time>2022-10-02T14:11:26.853Z</time>
      </trkpt>
      <trkpt lat="43.12023" lon="6.32752">
        <ele>109.4</ele>
        <time>2022-10-02T14:12:04.497Z</time>
      </trkpt>
      <trkpt lat="43.12025" lon="6.32764">
        <ele>109.5</ele>
        <time>2022-10-02T14:12:20.534Z</time>
      </trkpt>
      <trkpt lat="43.12022" lon="6.32778">
        <ele>109</ele>
        <time>2022-10-02T14:12:23.793Z</time>
      </trkpt>
      <trkpt lat="43.12021" lon="6.32791">
        <ele>107.9</ele>
        <time>2022-10-02T14:12:26.504Z</time>
      </trkpt>
      <trkpt lat="43.12021" lon="6.32805">
        <ele>106.9</ele>
        <time>2022-10-02T14:12:29.408Z</time>
      </trkpt>
      <trkpt lat="43.12021" lon="6.32818">
        <ele>106</ele>
        <time>2022-10-02T14:12:32.104Z</time>
      </trkpt>
      <trkpt lat="43.12019" lon="6.3283">
        <ele>104.9</ele>
        <time>2022-10-02T14:12:34.657Z</time>
      </trkpt>
      <trkpt lat="43.12021" lon="6.32843">
        <ele>104.8</ele>
        <time>2022-10-02T14:12:39.064Z</time>
      </trkpt>
      <trkpt lat="43.12021" lon="6.32857">
        <ele>104.6</ele>
        <time>2022-10-02T14:12:43.200Z</time>
      </trkpt>
      <trkpt lat="43.1202" lon="6.3287">
        <ele>104.4</ele>
        <time>2022-10-02T14:12:47.000Z</time>
      </trkpt>
      <trkpt lat="43.12028" lon="6.32885">
        <ele>104</ele>
        <time>2022-10-02T14:12:51.915Z</time>
      </trkpt>
      <trkpt lat="43.12039" lon="6.32885">
        <ele>101</ele>
        <time>2022-10-02T14:12:55.040Z</time>
      </trkpt>
      <trkpt lat="43.12042" lon="6.3287">
        <ele>100.2</ele>
        <time>2022-10-02T14:12:58.266Z</time>
      </trkpt>
      <trkpt lat="43.12045" lon="6.3286">
        <ele>99.5</ele>
        <time>2022-10-02T14:13:00.508Z</time>
      </trkpt>
      <trkpt lat="43.12048" lon="6.32848">
        <ele>99.3</ele>
        <time>2022-10-02T14:13:04.169Z</time>
      </trkpt>
      <trkpt lat="43.12053" lon="6.32836">
        <ele>98.6</ele>
        <time>2022-10-02T14:13:07.034Z</time>
      </trkpt>
      <trkpt lat="43.12058" lon="6.32825">
        <ele>98.5</ele>
        <time>2022-10-02T14:13:11.318Z</time>
      </trkpt>
      <trkpt lat="43.12065" lon="6.32818">
        <ele>97.1</ele>
        <time>2022-10-02T14:13:13.780Z</time>
      </trkpt>
      <trkpt lat="43.1207" lon="6.32815">
        <ele>96</ele>
        <time>2022-10-02T14:13:15.331Z</time>
      </trkpt>
      <trkpt lat="43.12071" lon="6.32813">
        <ele>96</ele>
        <time>2022-10-02T14:13:18.168Z</time>
      </trkpt>
      <trkpt lat="43.1208" lon="6.32806">
        <ele>94.1</ele>
        <time>2022-10-02T14:13:21.108Z</time>
      </trkpt>
      <trkpt lat="43.12087" lon="6.32798">
        <ele>93</ele>
        <time>2022-10-02T14:13:23.698Z</time>
      </trkpt>
      <trkpt lat="43.12095" lon="6.32789">
        <ele>91.9</ele>
        <time>2022-10-02T14:13:26.640Z</time>
      </trkpt>
      <trkpt lat="43.12102" lon="6.32782">
        <ele>90.9</ele>
        <time>2022-10-02T14:13:29.102Z</time>
      </trkpt>
      <trkpt lat="43.1211" lon="6.32774">
        <ele>89.7</ele>
        <time>2022-10-02T14:13:31.917Z</time>
      </trkpt>
      <trkpt lat="43.12115" lon="6.32764">
        <ele>88.7</ele>
        <time>2022-10-02T14:13:34.430Z</time>
      </trkpt>
      <trkpt lat="43.12121" lon="6.32754">
        <ele>87.7</ele>
        <time>2022-10-02T14:13:37.115Z</time>
      </trkpt>
      <trkpt lat="43.12125" lon="6.32742">
        <ele>86.9</ele>
        <time>2022-10-02T14:13:39.851Z</time>
      </trkpt>
      <trkpt lat="43.12129" lon="6.32733">
        <ele>85.9</ele>
        <time>2022-10-02T14:13:42.037Z</time>
      </trkpt>
      <trkpt lat="43.12131" lon="6.32719">
        <ele>85</ele>
        <time>2022-10-02T14:13:44.995Z</time>
      </trkpt>
      <trkpt lat="43.12133" lon="6.32707">
        <ele>83</ele>
        <time>2022-10-02T14:13:47.548Z</time>
      </trkpt>
      <trkpt lat="43.12142" lon="6.32703">
        <ele>80.1</ele>
        <time>2022-10-02T14:13:50.237Z</time>
      </trkpt>
      <trkpt lat="43.12143" lon="6.32707">
        <ele>80</ele>
        <time>2022-10-02T14:13:51.322Z</time>
      </trkpt>
      <trkpt lat="43.12145" lon="6.3271">
        <ele>79.7</ele>
        <time>2022-10-02T14:13:52.165Z</time>
      </trkpt>
      <trkpt lat="43.12149" lon="6.32723">
        <ele>79.9</ele>
        <time>2022-10-02T14:14:12.243Z</time>
      </trkpt>
      <trkpt lat="43.12156" lon="6.32713">
        <ele>76.8</ele>
        <time>2022-10-02T14:14:15.116Z</time>
      </trkpt>
      <trkpt lat="43.12155" lon="6.32698">
        <ele>75.5</ele>
        <time>2022-10-02T14:14:18.240Z</time>
      </trkpt>
      <trkpt lat="43.12158" lon="6.32684">
        <ele>74.2</ele>
        <time>2022-10-02T14:14:21.266Z</time>
      </trkpt>
      <trkpt lat="43.12159" lon="6.32672">
        <ele>73.9</ele>
        <time>2022-10-02T14:14:24.315Z</time>
      </trkpt>
      <trkpt lat="43.12153" lon="6.3266">
        <ele>74.7</ele>
        <time>2022-10-02T14:15:00.000Z</time>
      </trkpt>
    </trkseg>
  </trk>
</gpx>